IFA1107 EDDN-DXXX
Flight info
| Callsign | IFA1107 |
|---|---|
| Flight time | 6h 19m |
| Altitude | 36000 |
| Route | NUB1B NUB DCT ASPAT DCT XEBIX Y740 TIRUL M738 NATAG DCT KOXUD DCT TALEP DCT NEGAT DCT CIRTA UA605 CSO UM998 BOD UG855 NY UB726 PAMPA UR983 AMSOM AMSOM1L |
| Aircraft | CL60/M-SBDE1E2E3FGHIJ1J4J5J7M3RWXYZ/LB1V1D1 |
Departure
| Time | 2026-04-14 08:50 |
|---|---|
| Airport | Nuremberg Airport (EDDN) |
Arrival
| Time | 2026-04-14 15:09 |
|---|---|
| Airport | Lomé–Tokoin International Airport (DXXX) |
| Time | Latitude | Longitude | Altitude | Speed | Heading |
|---|---|---|---|---|---|
| 2026-04-14 08:15 | 49.49567 | 11.06896 | 1050 ft | 0 kts | 8° |
| 2026-04-14 08:40 | 49.49568 | 11.06896 | 1050 ft | 0 kts | 8° |
| 2026-04-14 08:41 | 49.49583 | 11.06899 | 1050 ft | 2 kts | 8° |
| 2026-04-14 08:41 | 49.49605 | 11.06924 | 1050 ft | 5 kts | 75° |
| 2026-04-14 08:41 | 49.49600 | 11.06995 | 1050 ft | 8 kts | 99° |
| 2026-04-14 08:41 | 49.49589 | 11.07100 | 1050 ft | 10 kts | 98° |
| 2026-04-14 08:42 | 49.49591 | 11.07195 | 1050 ft | 9 kts | 55° |
| 2026-04-14 08:42 | 49.49635 | 11.07241 | 1050 ft | 7 kts | 76° |
| 2026-04-14 08:42 | 49.49628 | 11.07335 | 1050 ft | 9 kts | 98° |
| 2026-04-14 08:42 | 49.49617 | 11.07450 | 1050 ft | 11 kts | 98° |
| 2026-04-14 08:43 | 49.49604 | 11.07585 | 1050 ft | 13 kts | 98° |
| 2026-04-14 08:43 | 49.49589 | 11.07742 | 1050 ft | 15 kts | 98° |
| 2026-04-14 08:43 | 49.49575 | 11.07883 | 1050 ft | 12 kts | 99° |
| 2026-04-14 08:43 | 49.49561 | 11.08019 | 1050 ft | 13 kts | 98° |
| 2026-04-14 08:44 | 49.49546 | 11.08177 | 1050 ft | 15 kts | 98° |
| 2026-04-14 08:44 | 49.49533 | 11.08308 | 1050 ft | 8 kts | 90° |
| 2026-04-14 08:44 | 49.49579 | 11.08361 | 1050 ft | 9 kts | 7° |
| 2026-04-14 08:44 | 49.49616 | 11.08430 | 1050 ft | 10 kts | 98° |
| 2026-04-14 08:45 | 49.49604 | 11.08550 | 1050 ft | 12 kts | 98° |
| 2026-04-14 08:45 | 49.49590 | 11.08690 | 1050 ft | 14 kts | 98° |
| 2026-04-14 08:45 | 49.49574 | 11.08849 | 1050 ft | 16 kts | 98° |
| 2026-04-14 08:45 | 49.49557 | 11.09029 | 1050 ft | 17 kts | 98° |
| 2026-04-14 08:46 | 49.49539 | 11.09208 | 1050 ft | 12 kts | 98° |
| 2026-04-14 08:46 | 49.49529 | 11.09304 | 1050 ft | 8 kts | 96° |
| 2026-04-14 08:46 | 49.49549 | 11.09397 | 1050 ft | 9 kts | 53° |
| 2026-04-14 08:46 | 49.49587 | 11.09476 | 1050 ft | 9 kts | 53° |
| 2026-04-14 08:47 | 49.49617 | 11.09536 | 1050 ft | 6 kts | 53° |
| 2026-04-14 08:47 | 49.49660 | 11.09579 | 1050 ft | 8 kts | 13° |
| 2026-04-14 08:47 | 49.49696 | 11.09567 | 1050 ft | 3 kts | 281° |
| 2026-04-14 08:47 | 49.49697 | 11.09554 | 1050 ft | 0 kts | 278° |
| 2026-04-14 08:49 | 49.49697 | 11.09553 | 1050 ft | 0 kts | 278° |
| 2026-04-14 08:49 | 49.49744 | 11.09083 | 1050 ft | 88 kts | 279° |
| 2026-04-14 08:49 | 49.49871 | 11.07776 | 1050 ft | 154 kts | 278° |
| 2026-04-14 08:49 | 49.50035 | 11.06039 | 1470 ft | 174 kts | 280° |
| 2026-04-14 08:50 | 49.50229 | 11.04168 | 2097 ft | 182 kts | 279° |
| 2026-04-14 08:50 | 49.50395 | 11.02218 | 2684 ft | 184 kts | 281° |
| 2026-04-14 08:50 | 49.50592 | 11.00265 | 3054 ft | 196 kts | 282° |
| 2026-04-14 08:50 | 49.50804 | 10.98180 | 3536 ft | 203 kts | 282° |
| 2026-04-14 08:51 | 49.51044 | 10.95845 | 3585 ft | 233 kts | 281° |
| 2026-04-14 08:51 | 49.51223 | 10.93295 | 3818 ft | 253 kts | 268° |
| 2026-04-14 08:51 | 49.50699 | 10.90645 | 4241 ft | 268 kts | 246° |
| 2026-04-14 08:51 | 49.49883 | 10.88056 | 4924 ft | 271 kts | 246° |
| 2026-04-14 08:52 | 49.49078 | 10.85449 | 5631 ft | 273 kts | 245° |
| 2026-04-14 08:52 | 49.48262 | 10.82807 | 6306 ft | 275 kts | 245° |
| 2026-04-14 08:52 | 49.47435 | 10.80177 | 6961 ft | 276 kts | 241° |
| 2026-04-14 08:52 | 49.46245 | 10.77889 | 7561 ft | 280 kts | 219° |
| 2026-04-14 08:53 | 49.44543 | 10.76489 | 8216 ft | 279 kts | 195° |
| 2026-04-14 08:53 | 49.42608 | 10.76168 | 8800 ft | 281 kts | 180° |
| 2026-04-14 08:53 | 49.40658 | 10.76149 | 9400 ft | 283 kts | 180° |
| 2026-04-14 08:53 | 49.38680 | 10.76116 | 9957 ft | 286 kts | 179° |
| 2026-04-14 08:54 | 49.36697 | 10.76084 | 10547 ft | 287 kts | 181° |
| 2026-04-14 08:54 | 49.34662 | 10.76051 | 10743 ft | 303 kts | 181° |
| 2026-04-14 08:54 | 49.32492 | 10.76012 | 10858 ft | 319 kts | 181° |
| 2026-04-14 08:54 | 49.30242 | 10.75974 | 11228 ft | 325 kts | 181° |
| 2026-04-14 08:55 | 49.27985 | 10.75935 | 11645 ft | 328 kts | 181° |
| 2026-04-14 08:55 | 49.25698 | 10.75896 | 12094 ft | 330 kts | 181° |
| 2026-04-14 08:55 | 49.23412 | 10.75570 | 12555 ft | 337 kts | 195° |
| 2026-04-14 08:55 | 49.21275 | 10.74123 | 13240 ft | 339 kts | 211° |
| 2026-04-14 08:56 | 49.19156 | 10.72579 | 13892 ft | 342 kts | 194° |
| 2026-04-14 08:56 | 49.16805 | 10.72098 | 14501 ft | 347 kts | 185° |
| 2026-04-14 08:56 | 49.14382 | 10.71781 | 15151 ft | 349 kts | 186° |
| 2026-04-14 08:56 | 49.11985 | 10.71451 | 15797 ft | 352 kts | 185° |
| 2026-04-14 08:57 | 49.09518 | 10.71109 | 16400 ft | 355 kts | 185° |
| 2026-04-14 08:57 | 49.07056 | 10.70769 | 16941 ft | 360 kts | 185° |
| 2026-04-14 08:57 | 49.04553 | 10.70421 | 17498 ft | 367 kts | 185° |
| 2026-04-14 08:57 | 49.02026 | 10.70071 | 18208 ft | 367 kts | 185° |
| 2026-04-14 08:58 | 48.99503 | 10.69720 | 18969 ft | 365 kts | 185° |
| 2026-04-14 08:58 | 48.96965 | 10.69366 | 19568 ft | 368 kts | 185° |
| 2026-04-14 08:58 | 48.94422 | 10.69012 | 20124 ft | 371 kts | 185° |
| 2026-04-14 08:58 | 48.91853 | 10.68654 | 20632 ft | 374 kts | 185° |
| 2026-04-14 08:59 | 48.89272 | 10.68295 | 21182 ft | 377 kts | 186° |
| 2026-04-14 08:59 | 48.86613 | 10.67924 | 21679 ft | 380 kts | 186° |
| 2026-04-14 08:59 | 48.83978 | 10.67557 | 22175 ft | 382 kts | 186° |
| 2026-04-14 08:59 | 48.81354 | 10.67192 | 22713 ft | 383 kts | 186° |
| 2026-04-14 09:00 | 48.78692 | 10.66821 | 23172 ft | 386 kts | 186° |
| 2026-04-14 09:00 | 48.75986 | 10.66445 | 23637 ft | 388 kts | 186° |
| 2026-04-14 09:00 | 48.73315 | 10.66074 | 24185 ft | 388 kts | 186° |
| 2026-04-14 09:00 | 48.70649 | 10.65703 | 24623 ft | 390 kts | 186° |
| 2026-04-14 09:01 | 48.67948 | 10.65328 | 25009 ft | 393 kts | 186° |
| 2026-04-14 09:01 | 48.65205 | 10.64948 | 25442 ft | 394 kts | 186° |
| 2026-04-14 09:01 | 48.62498 | 10.64573 | 25908 ft | 395 kts | 187° |
| 2026-04-14 09:01 | 48.59738 | 10.64191 | 26283 ft | 397 kts | 187° |
| 2026-04-14 09:02 | 48.56956 | 10.63806 | 26603 ft | 401 kts | 187° |
| 2026-04-14 09:02 | 48.54155 | 10.63418 | 26915 ft | 404 kts | 187° |
| 2026-04-14 09:02 | 48.51346 | 10.63030 | 27253 ft | 406 kts | 187° |
| 2026-04-14 09:02 | 48.48546 | 10.62645 | 27683 ft | 405 kts | 187° |
| 2026-04-14 09:03 | 48.45722 | 10.62256 | 28026 ft | 407 kts | 187° |
| 2026-04-14 09:03 | 48.42880 | 10.61864 | 28252 ft | 411 kts | 187° |
| 2026-04-14 09:03 | 48.40042 | 10.61474 | 28548 ft | 413 kts | 187° |
| 2026-04-14 09:03 | 48.37158 | 10.61078 | 28766 ft | 416 kts | 187° |
| 2026-04-14 09:04 | 48.34258 | 10.60680 | 29168 ft | 414 kts | 187° |
| 2026-04-14 09:04 | 48.31405 | 10.60289 | 29497 ft | 414 kts | 187° |
| 2026-04-14 09:04 | 48.28526 | 10.59895 | 29717 ft | 417 kts | 187° |
| 2026-04-14 09:04 | 48.25656 | 10.59503 | 29914 ft | 420 kts | 187° |
| 2026-04-14 09:05 | 48.22733 | 10.59103 | 30149 ft | 421 kts | 187° |
| 2026-04-14 09:05 | 48.19790 | 10.58702 | 30412 ft | 422 kts | 187° |
| 2026-04-14 09:05 | 48.16851 | 10.58301 | 30650 ft | 423 kts | 187° |
| 2026-04-14 09:05 | 48.13935 | 10.57905 | 30825 ft | 425 kts | 187° |
| 2026-04-14 09:06 | 48.07971 | 10.57094 | 31053 ft | 432 kts | 187° |
| 2026-04-14 09:06 | 48.04993 | 10.56690 | 31291 ft | 433 kts | 187° |
| 2026-04-14 09:06 | 48.01984 | 10.56283 | 31600 ft | 432 kts | 187° |
| 2026-04-14 09:07 | 47.98994 | 10.55878 | 31806 ft | 434 kts | 187° |
| 2026-04-14 09:07 | 47.96011 | 10.55475 | 31973 ft | 437 kts | 187° |
| 2026-04-14 09:07 | 47.92966 | 10.55064 | 32203 ft | 437 kts | 187° |
| 2026-04-14 09:07 | 47.89942 | 10.54656 | 32418 ft | 438 kts | 187° |
| 2026-04-14 09:08 | 47.83789 | 10.53827 | 32554 ft | 447 kts | 187° |
| 2026-04-14 09:08 | 47.80683 | 10.53410 | 32837 ft | 446 kts | 187° |
| 2026-04-14 09:08 | 47.77621 | 10.52999 | 33089 ft | 445 kts | 187° |
| 2026-04-14 09:09 | 47.74552 | 10.52587 | 33327 ft | 445 kts | 187° |
| 2026-04-14 09:09 | 47.71462 | 10.52174 | 33614 ft | 444 kts | 187° |
| 2026-04-14 09:09 | 47.68420 | 10.51768 | 34009 ft | 439 kts | 187° |
| 2026-04-14 09:09 | 47.65394 | 10.51364 | 34254 ft | 437 kts | 187° |
| 2026-04-14 09:10 | 47.62327 | 10.50954 | 34361 ft | 442 kts | 187° |
| 2026-04-14 09:10 | 47.59275 | 10.50547 | 34597 ft | 441 kts | 187° |
| 2026-04-14 09:10 | 47.56266 | 10.50147 | 34903 ft | 438 kts | 187° |
| 2026-04-14 09:10 | 47.53222 | 10.49742 | 35013 ft | 439 kts | 187° |
| 2026-04-14 09:11 | 47.50187 | 10.49339 | 35198 ft | 439 kts | 187° |
| 2026-04-14 09:11 | 47.47101 | 10.48929 | 35187 ft | 443 kts | 187° |
| 2026-04-14 09:11 | 47.40961 | 10.48147 | 35289 ft | 445 kts | 184° |
| 2026-04-14 09:12 | 47.37886 | 10.48262 | 35414 ft | 445 kts | 176° |
| 2026-04-14 09:12 | 47.34774 | 10.48710 | 35518 ft | 447 kts | 176° |
| 2026-04-14 09:12 | 47.31702 | 10.49154 | 35622 ft | 446 kts | 176° |
| 2026-04-14 09:12 | 47.28612 | 10.49597 | 36028 ft | 444 kts | 176° |
| 2026-04-14 09:13 | 47.22465 | 10.50477 | 36044 ft | 442 kts | 176° |
| 2026-04-14 09:13 | 47.16414 | 10.51341 | 35900 ft | 437 kts | 176° |
| 2026-04-14 09:14 | 47.13407 | 10.51769 | 36073 ft | 433 kts | 176° |
| 2026-04-14 09:14 | 47.10381 | 10.52199 | 36029 ft | 437 kts | 175° |
| 2026-04-14 09:14 | 47.04395 | 10.53435 | 36205 ft | 443 kts | 166° |
| 2026-04-14 09:15 | 47.01435 | 10.54748 | 36050 ft | 448 kts | 163° |
| 2026-04-14 09:15 | 46.98462 | 10.56106 | 36054 ft | 448 kts | 164° |
| 2026-04-14 09:15 | 46.92508 | 10.58660 | 36021 ft | 449 kts | 169° |
| 2026-04-14 09:16 | 46.86308 | 10.59508 | 36017 ft | 445 kts | 183° |
| 2026-04-14 09:16 | 46.80206 | 10.58129 | 36006 ft | 444 kts | 197° |
| 2026-04-14 09:17 | 46.74482 | 10.54912 | 36015 ft | 442 kts | 204° |
| 2026-04-14 09:17 | 46.68854 | 10.51459 | 36002 ft | 442 kts | 203° |
| 2026-04-14 09:18 | 46.63173 | 10.47984 | 36005 ft | 442 kts | 202° |
| 2026-04-14 09:18 | 46.57524 | 10.44534 | 35989 ft | 442 kts | 202° |
| 2026-04-14 09:19 | 46.51889 | 10.41102 | 35979 ft | 442 kts | 202° |
| 2026-04-14 09:19 | 46.46215 | 10.37652 | 35978 ft | 442 kts | 202° |
| 2026-04-14 09:20 | 46.40557 | 10.34220 | 35976 ft | 442 kts | 201° |
| 2026-04-14 09:20 | 46.34903 | 10.30799 | 35997 ft | 442 kts | 202° |
| 2026-04-14 09:21 | 46.29248 | 10.27384 | 36022 ft | 441 kts | 201° |
| 2026-04-14 09:21 | 46.23583 | 10.23970 | 36013 ft | 443 kts | 201° |
| 2026-04-14 09:22 | 46.17880 | 10.20542 | 35993 ft | 443 kts | 201° |
| 2026-04-14 09:22 | 46.12233 | 10.17154 | 35997 ft | 443 kts | 201° |
| 2026-04-14 09:23 | 46.06516 | 10.13732 | 35967 ft | 445 kts | 201° |
| 2026-04-14 09:23 | 46.00821 | 10.10332 | 35977 ft | 445 kts | 201° |
| 2026-04-14 09:24 | 45.95115 | 10.06932 | 35969 ft | 445 kts | 201° |
| 2026-04-14 09:24 | 45.89397 | 10.03532 | 35984 ft | 445 kts | 201° |
| 2026-04-14 09:25 | 45.83697 | 10.00151 | 35989 ft | 444 kts | 201° |
| 2026-04-14 09:25 | 45.77974 | 9.96764 | 35980 ft | 446 kts | 201° |
| 2026-04-14 09:26 | 45.72216 | 9.93364 | 35955 ft | 445 kts | 201° |
| 2026-04-14 09:26 | 45.66519 | 9.90007 | 35955 ft | 447 kts | 201° |
| 2026-04-14 09:27 | 45.60760 | 9.86621 | 35954 ft | 446 kts | 201° |
| 2026-04-14 09:27 | 45.55025 | 9.83257 | 35950 ft | 447 kts | 201° |
| 2026-04-14 09:28 | 45.49308 | 9.79910 | 35967 ft | 447 kts | 201° |
| 2026-04-14 09:28 | 45.43570 | 9.76559 | 35956 ft | 449 kts | 201° |
| 2026-04-14 09:29 | 45.37791 | 9.73191 | 35959 ft | 448 kts | 201° |
| 2026-04-14 09:29 | 45.32062 | 9.69860 | 35955 ft | 449 kts | 201° |
| 2026-04-14 09:30 | 45.26294 | 9.66513 | 35962 ft | 449 kts | 201° |
| 2026-04-14 09:30 | 45.20517 | 9.63168 | 35978 ft | 449 kts | 201° |
| 2026-04-14 09:31 | 45.14711 | 9.59905 | 35944 ft | 451 kts | 200° |
| 2026-04-14 09:31 | 45.08874 | 9.56744 | 35953 ft | 450 kts | 200° |
| 2026-04-14 09:32 | 45.03040 | 9.53588 | 35952 ft | 451 kts | 200° |
| 2026-04-14 09:33 | 44.94261 | 9.48851 | 35966 ft | 452 kts | 200° |
| 2026-04-14 09:33 | 44.88380 | 9.45686 | 35981 ft | 453 kts | 200° |
| 2026-04-14 09:34 | 44.82502 | 9.42529 | 35960 ft | 454 kts | 200° |
| 2026-04-14 09:34 | 44.76624 | 9.39378 | 35951 ft | 454 kts | 200° |
| 2026-04-14 09:35 | 44.70720 | 9.36221 | 35938 ft | 455 kts | 200° |
| 2026-04-14 09:35 | 44.64827 | 9.33075 | 35958 ft | 455 kts | 200° |
| 2026-04-14 09:36 | 44.58931 | 9.29936 | 35948 ft | 455 kts | 200° |
| 2026-04-14 09:36 | 44.52991 | 9.26779 | 35893 ft | 457 kts | 200° |
| 2026-04-14 09:37 | 44.47065 | 9.23637 | 35929 ft | 456 kts | 200° |
| 2026-04-14 09:37 | 44.41145 | 9.20504 | 35922 ft | 457 kts | 200° |
| 2026-04-14 09:38 | 44.35284 | 9.17409 | 36155 ft | 451 kts | 200° |
| 2026-04-14 09:38 | 44.32316 | 9.15845 | 35774 ft | 453 kts | 200° |
| 2026-04-14 09:38 | 44.29396 | 9.14307 | 35909 ft | 448 kts | 200° |
| 2026-04-14 09:39 | 44.23605 | 9.11263 | 35965 ft | 448 kts | 200° |
| 2026-04-14 09:39 | 44.17769 | 9.08202 | 35935 ft | 451 kts | 200° |
| 2026-04-14 09:40 | 44.11873 | 9.05115 | 35882 ft | 453 kts | 200° |
| 2026-04-14 09:40 | 44.05979 | 9.02037 | 35913 ft | 453 kts | 200° |
| 2026-04-14 09:41 | 44.00069 | 8.98956 | 35906 ft | 454 kts | 200° |
| 2026-04-14 09:41 | 43.94190 | 8.95899 | 35904 ft | 456 kts | 200° |
| 2026-04-14 09:42 | 43.88257 | 8.92819 | 35908 ft | 457 kts | 200° |
| 2026-04-14 09:42 | 43.82310 | 8.89740 | 35899 ft | 457 kts | 200° |
| 2026-04-14 09:43 | 43.76333 | 8.86651 | 35892 ft | 458 kts | 200° |
| 2026-04-14 09:43 | 43.70385 | 8.83583 | 35908 ft | 458 kts | 200° |
| 2026-04-14 09:44 | 43.64428 | 8.80519 | 35901 ft | 459 kts | 200° |
| 2026-04-14 09:44 | 43.58472 | 8.77461 | 35907 ft | 458 kts | 200° |
| 2026-04-14 09:45 | 43.52520 | 8.74411 | 35899 ft | 459 kts | 200° |
| 2026-04-14 09:45 | 43.46556 | 8.71369 | 35900 ft | 459 kts | 199° |
| 2026-04-14 09:46 | 43.40460 | 8.68702 | 35901 ft | 459 kts | 197° |
| 2026-04-14 09:46 | 43.34388 | 8.66112 | 35893 ft | 460 kts | 197° |
| 2026-04-14 09:47 | 43.28303 | 8.63521 | 35898 ft | 459 kts | 197° |
| 2026-04-14 09:47 | 43.22187 | 8.60921 | 35898 ft | 459 kts | 197° |
| 2026-04-14 09:48 | 43.16115 | 8.58344 | 35878 ft | 460 kts | 197° |
| 2026-04-14 09:48 | 43.10012 | 8.55759 | 35892 ft | 460 kts | 197° |
| 2026-04-14 09:49 | 43.03908 | 8.53179 | 35878 ft | 460 kts | 197° |
| 2026-04-14 09:49 | 42.97808 | 8.50605 | 35873 ft | 460 kts | 197° |
| 2026-04-14 09:50 | 42.91706 | 8.48036 | 35871 ft | 459 kts | 197° |
| 2026-04-14 09:50 | 42.85613 | 8.45476 | 36087 ft | 462 kts | 197° |
| 2026-04-14 09:50 | 42.82533 | 8.44184 | 35654 ft | 466 kts | 197° |
| 2026-04-14 09:51 | 42.79437 | 8.42886 | 35810 ft | 460 kts | 197° |
| 2026-04-14 09:51 | 42.73369 | 8.40346 | 35891 ft | 456 kts | 197° |
| 2026-04-14 09:51 | 42.70359 | 8.39089 | 36229 ft | 457 kts | 197° |
| 2026-04-14 09:52 | 42.67295 | 8.37810 | 35826 ft | 459 kts | 197° |
| 2026-04-14 09:52 | 42.64275 | 8.36551 | 35995 ft | 463 kts | 197° |
| 2026-04-14 09:52 | 42.61181 | 8.35262 | 35908 ft | 465 kts | 197° |
| 2026-04-14 09:53 | 42.55008 | 8.32694 | 35865 ft | 465 kts | 196° |
| 2026-04-14 09:53 | 42.48825 | 8.30127 | 35859 ft | 464 kts | 195° |
| 2026-04-14 09:54 | 42.42686 | 8.27584 | 35888 ft | 462 kts | 196° |
| 2026-04-14 09:54 | 42.36566 | 8.25054 | 35872 ft | 460 kts | 196° |
| 2026-04-14 09:55 | 42.30436 | 8.22525 | 35861 ft | 459 kts | 196° |
| 2026-04-14 09:55 | 42.24348 | 8.20018 | 35846 ft | 458 kts | 195° |
| 2026-04-14 09:56 | 42.18285 | 8.17527 | 35846 ft | 458 kts | 196° |
| 2026-04-14 09:56 | 42.12199 | 8.15031 | 35882 ft | 457 kts | 196° |
| 2026-04-14 09:57 | 42.06124 | 8.12544 | 35885 ft | 456 kts | 196° |
| 2026-04-14 09:57 | 42.00067 | 8.10071 | 35873 ft | 456 kts | 195° |
| 2026-04-14 09:58 | 41.94032 | 8.07611 | 35870 ft | 455 kts | 195° |
| 2026-04-14 09:58 | 41.87934 | 8.05130 | 35890 ft | 455 kts | 196° |
| 2026-04-14 09:59 | 41.81900 | 8.02680 | 35875 ft | 455 kts | 195° |
| 2026-04-14 09:59 | 41.75828 | 8.00220 | 35850 ft | 457 kts | 196° |
| 2026-04-14 10:00 | 41.69789 | 7.97778 | 35877 ft | 454 kts | 195° |
| 2026-04-14 10:00 | 41.63744 | 7.95338 | 35869 ft | 456 kts | 195° |
| 2026-04-14 10:01 | 41.57697 | 7.92903 | 35854 ft | 455 kts | 195° |
| 2026-04-14 10:01 | 41.51667 | 7.90478 | 35884 ft | 456 kts | 195° |
| 2026-04-14 10:02 | 41.45613 | 7.88049 | 35886 ft | 456 kts | 195° |
| 2026-04-14 10:02 | 41.39499 | 7.85666 | 35866 ft | 456 kts | 194° |
| 2026-04-14 10:03 | 41.33389 | 7.83492 | 35827 ft | 458 kts | 194° |
| 2026-04-14 10:03 | 41.27278 | 7.81320 | 35883 ft | 455 kts | 194° |
| 2026-04-14 10:04 | 41.21169 | 7.79153 | 35894 ft | 456 kts | 194° |
| 2026-04-14 10:04 | 41.15029 | 7.76979 | 35881 ft | 458 kts | 194° |
| 2026-04-14 10:05 | 41.08874 | 7.74803 | 35869 ft | 458 kts | 194° |
| 2026-04-14 10:05 | 41.02758 | 7.72646 | 35878 ft | 458 kts | 194° |
| 2026-04-14 10:06 | 40.96599 | 7.70477 | 35913 ft | 458 kts | 194° |
| 2026-04-14 10:06 | 40.90435 | 7.68311 | 35885 ft | 459 kts | 194° |
| 2026-04-14 10:07 | 40.84284 | 7.66153 | 35882 ft | 458 kts | 194° |
| 2026-04-14 10:07 | 40.78101 | 7.63988 | 35868 ft | 459 kts | 194° |
| 2026-04-14 10:08 | 40.71941 | 7.61835 | 35883 ft | 460 kts | 194° |
| 2026-04-14 10:08 | 40.65778 | 7.59686 | 35902 ft | 459 kts | 194° |
| 2026-04-14 10:09 | 40.59625 | 7.57543 | 35901 ft | 459 kts | 194° |
| 2026-04-14 10:09 | 40.53428 | 7.55391 | 35906 ft | 459 kts | 194° |
| 2026-04-14 10:10 | 40.47292 | 7.53263 | 35885 ft | 460 kts | 194° |
| 2026-04-14 10:10 | 40.41096 | 7.51143 | 35877 ft | 460 kts | 194° |
| 2026-04-14 10:11 | 40.34912 | 7.49000 | 35922 ft | 459 kts | 194° |
| 2026-04-14 10:11 | 40.28756 | 7.46873 | 35938 ft | 460 kts | 194° |
| 2026-04-14 10:12 | 40.22557 | 7.44735 | 35939 ft | 460 kts | 194° |
| 2026-04-14 10:12 | 40.16373 | 7.42608 | 35898 ft | 462 kts | 194° |
| 2026-04-14 10:13 | 40.10136 | 7.40466 | 35904 ft | 462 kts | 194° |
| 2026-04-14 10:13 | 40.03956 | 7.38351 | 35953 ft | 461 kts | 194° |
| 2026-04-14 10:14 | 39.97755 | 7.36235 | 35903 ft | 463 kts | 194° |
| 2026-04-14 10:14 | 39.91537 | 7.34113 | 35955 ft | 462 kts | 193° |
| 2026-04-14 10:15 | 39.85321 | 7.31996 | 35916 ft | 464 kts | 193° |
| 2026-04-14 10:15 | 39.79095 | 7.29883 | 35925 ft | 464 kts | 193° |
| 2026-04-14 10:16 | 39.72837 | 7.27760 | 35923 ft | 462 kts | 193° |
| 2026-04-14 10:16 | 39.66664 | 7.25663 | 35937 ft | 462 kts | 193° |
| 2026-04-14 10:17 | 39.60450 | 7.23570 | 35941 ft | 462 kts | 193° |
| 2026-04-14 10:17 | 39.54243 | 7.21477 | 35947 ft | 462 kts | 193° |
| 2026-04-14 10:18 | 39.44924 | 7.18341 | 35953 ft | 462 kts | 193° |
| 2026-04-14 10:18 | 39.38672 | 7.16246 | 35949 ft | 463 kts | 193° |
| 2026-04-14 10:19 | 39.32455 | 7.14161 | 35952 ft | 462 kts | 193° |
| 2026-04-14 10:19 | 39.26242 | 7.12083 | 35956 ft | 463 kts | 193° |
| 2026-04-14 10:20 | 39.20032 | 7.10011 | 35970 ft | 462 kts | 193° |
| 2026-04-14 10:20 | 39.13800 | 7.07932 | 35967 ft | 464 kts | 193° |
| 2026-04-14 10:21 | 39.07567 | 7.05860 | 35977 ft | 463 kts | 194° |
| 2026-04-14 10:21 | 39.01344 | 7.03797 | 35958 ft | 464 kts | 193° |
| 2026-04-14 10:22 | 38.94965 | 7.02480 | 35929 ft | 465 kts | 186° |
| 2026-04-14 10:22 | 38.88593 | 7.01457 | 35968 ft | 463 kts | 186° |
| 2026-04-14 10:23 | 38.82190 | 7.00427 | 35966 ft | 464 kts | 186° |
| 2026-04-14 10:23 | 38.75820 | 6.99403 | 35965 ft | 464 kts | 186° |
| 2026-04-14 10:24 | 38.69420 | 6.98373 | 35959 ft | 463 kts | 186° |
| 2026-04-14 10:24 | 38.63023 | 6.97345 | 35981 ft | 463 kts | 186° |
| 2026-04-14 10:25 | 38.56659 | 6.96322 | 35958 ft | 463 kts | 186° |
| 2026-04-14 10:25 | 38.50258 | 6.95296 | 35988 ft | 463 kts | 187° |
| 2026-04-14 10:26 | 38.43886 | 6.94274 | 35979 ft | 463 kts | 187° |
| 2026-04-14 10:26 | 38.37487 | 6.93250 | 35978 ft | 463 kts | 187° |
| 2026-04-14 10:27 | 38.31115 | 6.92232 | 35988 ft | 463 kts | 187° |
| 2026-04-14 10:27 | 38.24735 | 6.91215 | 35978 ft | 463 kts | 187° |
| 2026-04-14 10:28 | 38.18375 | 6.90201 | 35999 ft | 462 kts | 187° |
| 2026-04-14 10:28 | 38.11971 | 6.89182 | 35983 ft | 464 kts | 187° |
| 2026-04-14 10:29 | 38.05582 | 6.88169 | 35995 ft | 462 kts | 187° |
| 2026-04-14 10:29 | 37.99233 | 6.87161 | 35976 ft | 463 kts | 187° |
| 2026-04-14 10:30 | 37.92828 | 6.86148 | 36004 ft | 462 kts | 187° |
| 2026-04-14 10:30 | 37.86401 | 6.85132 | 35979 ft | 464 kts | 187° |
| 2026-04-14 10:31 | 37.80042 | 6.84129 | 36009 ft | 462 kts | 187° |
| 2026-04-14 10:31 | 37.73632 | 6.83118 | 36000 ft | 463 kts | 187° |
| 2026-04-14 10:32 | 37.67271 | 6.82135 | 35994 ft | 463 kts | 186° |
| 2026-04-14 10:32 | 37.60852 | 6.81165 | 35997 ft | 462 kts | 187° |
| 2026-04-14 10:33 | 37.54510 | 6.80157 | 36001 ft | 463 kts | 187° |
| 2026-04-14 10:33 | 37.48087 | 6.79143 | 36007 ft | 463 kts | 187° |
| 2026-04-14 10:34 | 37.38544 | 6.77643 | 36025 ft | 462 kts | 187° |
| 2026-04-14 10:35 | 37.32144 | 6.76641 | 36013 ft | 463 kts | 187° |
| 2026-04-14 10:35 | 37.25750 | 6.75644 | 36020 ft | 463 kts | 187° |
| 2026-04-14 10:36 | 37.19347 | 6.74647 | 36022 ft | 464 kts | 187° |
| 2026-04-14 10:36 | 37.12960 | 6.73655 | 36023 ft | 463 kts | 187° |
| 2026-04-14 10:37 | 37.06583 | 6.72667 | 36026 ft | 463 kts | 187° |
| 2026-04-14 10:37 | 37.00160 | 6.71674 | 36018 ft | 464 kts | 187° |
| 2026-04-14 10:38 | 36.93919 | 6.70711 | 36038 ft | 464 kts | 188° |
| 2026-04-14 10:38 | 36.87440 | 6.69712 | 36027 ft | 464 kts | 187° |
| 2026-04-14 10:39 | 36.81032 | 6.68727 | 36029 ft | 463 kts | 188° |
| 2026-04-14 10:39 | 36.74626 | 6.67743 | 36021 ft | 464 kts | 187° |
| 2026-04-14 10:40 | 36.68235 | 6.66764 | 36025 ft | 463 kts | 188° |
| 2026-04-14 10:40 | 36.61798 | 6.65779 | 36011 ft | 464 kts | 188° |
| 2026-04-14 10:41 | 36.55410 | 6.64803 | 36033 ft | 464 kts | 187° |
| 2026-04-14 10:41 | 36.49028 | 6.63830 | 36053 ft | 463 kts | 188° |
| 2026-04-14 10:42 | 36.42609 | 6.62853 | 36037 ft | 464 kts | 188° |
| 2026-04-14 10:42 | 36.36208 | 6.61880 | 36056 ft | 463 kts | 188° |
| 2026-04-14 10:43 | 36.29832 | 6.60940 | 36065 ft | 463 kts | 185° |
| 2026-04-14 10:43 | 36.23376 | 6.60974 | 36049 ft | 464 kts | 179° |
| 2026-04-14 10:44 | 36.16929 | 6.61176 | 36043 ft | 464 kts | 179° |
| 2026-04-14 10:44 | 36.10438 | 6.61376 | 36057 ft | 465 kts | 179° |
| 2026-04-14 10:45 | 36.03960 | 6.61573 | 36053 ft | 464 kts | 179° |
| 2026-04-14 10:45 | 35.97502 | 6.61768 | 36053 ft | 465 kts | 179° |
| 2026-04-14 10:46 | 35.91051 | 6.61961 | 36035 ft | 465 kts | 180° |
| 2026-04-14 10:46 | 35.84563 | 6.62154 | 36012 ft | 466 kts | 180° |
| 2026-04-14 10:47 | 35.78070 | 6.62347 | 36066 ft | 465 kts | 180° |
| 2026-04-14 10:47 | 35.71630 | 6.62537 | 36004 ft | 467 kts | 180° |
| 2026-04-14 10:48 | 35.65142 | 6.62728 | 36006 ft | 467 kts | 180° |
| 2026-04-14 10:48 | 35.58648 | 6.62919 | 36061 ft | 465 kts | 180° |
| 2026-04-14 10:49 | 35.52139 | 6.63110 | 35986 ft | 467 kts | 180° |
| 2026-04-14 10:49 | 35.45668 | 6.63299 | 35990 ft | 467 kts | 180° |
| 2026-04-14 10:50 | 35.39150 | 6.63489 | 35970 ft | 466 kts | 180° |
| 2026-04-14 10:50 | 35.32661 | 6.63678 | 35981 ft | 466 kts | 180° |
| 2026-04-14 10:51 | 35.26194 | 6.63865 | 35964 ft | 467 kts | 180° |
| 2026-04-14 10:51 | 35.19707 | 6.64053 | 35967 ft | 466 kts | 180° |
| 2026-04-14 10:52 | 35.13219 | 6.64241 | 35966 ft | 467 kts | 180° |
| 2026-04-14 10:52 | 35.06706 | 6.64429 | 35965 ft | 466 kts | 181° |
| 2026-04-14 10:53 | 35.00241 | 6.64615 | 35988 ft | 465 kts | 181° |
| 2026-04-14 10:53 | 34.93801 | 6.64800 | 35995 ft | 465 kts | 180° |
| 2026-04-14 10:54 | 34.87286 | 6.64987 | 35983 ft | 465 kts | 181° |
| 2026-04-14 10:54 | 34.80839 | 6.65171 | 35963 ft | 466 kts | 181° |
| 2026-04-14 10:55 | 34.74349 | 6.65364 | 35964 ft | 465 kts | 181° |
| 2026-04-14 10:55 | 34.67886 | 6.65557 | 35954 ft | 465 kts | 181° |
| 2026-04-14 10:56 | 34.61445 | 6.65749 | 35973 ft | 465 kts | 181° |
| 2026-04-14 10:56 | 34.54990 | 6.65942 | 35974 ft | 464 kts | 181° |
| 2026-04-14 10:57 | 34.48512 | 6.66134 | 35957 ft | 464 kts | 181° |
| 2026-04-14 10:57 | 34.42018 | 6.66327 | 35964 ft | 464 kts | 181° |
| 2026-04-14 10:58 | 34.35521 | 6.66519 | 35954 ft | 465 kts | 181° |
| 2026-04-14 10:58 | 34.29050 | 6.66711 | 35954 ft | 464 kts | 181° |
| 2026-04-14 10:59 | 34.22574 | 6.66903 | 35933 ft | 465 kts | 182° |
| 2026-04-14 10:59 | 34.16097 | 6.67094 | 35935 ft | 465 kts | 181° |
| 2026-04-14 11:00 | 34.09637 | 6.67284 | 35937 ft | 465 kts | 182° |
| 2026-04-14 11:00 | 34.03148 | 6.67476 | 35941 ft | 465 kts | 181° |
| 2026-04-14 11:01 | 33.96651 | 6.67666 | 35934 ft | 465 kts | 181° |
| 2026-04-14 11:01 | 33.90190 | 6.67856 | 35929 ft | 465 kts | 182° |
| 2026-04-14 11:02 | 33.83672 | 6.68047 | 35944 ft | 465 kts | 182° |
| 2026-04-14 11:02 | 33.77206 | 6.68237 | 35946 ft | 465 kts | 182° |
| 2026-04-14 11:03 | 33.70718 | 6.68427 | 35954 ft | 464 kts | 182° |
| 2026-04-14 11:03 | 33.64278 | 6.68615 | 35968 ft | 463 kts | 182° |
| 2026-04-14 11:04 | 33.57816 | 6.68804 | 35977 ft | 463 kts | 182° |
| 2026-04-14 11:04 | 33.51363 | 6.68992 | 35961 ft | 463 kts | 182° |
| 2026-04-14 11:05 | 33.44951 | 6.69178 | 35964 ft | 463 kts | 182° |
| 2026-04-14 11:05 | 33.38497 | 6.69366 | 35974 ft | 463 kts | 182° |
| 2026-04-14 11:06 | 33.32061 | 6.69553 | 35975 ft | 463 kts | 183° |
| 2026-04-14 11:06 | 33.25616 | 6.69740 | 35964 ft | 463 kts | 182° |
| 2026-04-14 11:07 | 33.19194 | 6.69926 | 35963 ft | 463 kts | 182° |
| 2026-04-14 11:07 | 33.12733 | 6.70113 | 35949 ft | 464 kts | 183° |
| 2026-04-14 11:08 | 33.06287 | 6.70299 | 35951 ft | 463 kts | 183° |
| 2026-04-14 11:08 | 32.99801 | 6.70486 | 35936 ft | 464 kts | 183° |
| 2026-04-14 11:09 | 32.93337 | 6.70673 | 35937 ft | 463 kts | 183° |
| 2026-04-14 11:09 | 32.86909 | 6.70859 | 35947 ft | 463 kts | 183° |
| 2026-04-14 11:10 | 32.77493 | 6.71130 | 35943 ft | 462 kts | 183° |
| 2026-04-14 11:10 | 32.71249 | 6.71310 | 35946 ft | 462 kts | 183° |
| 2026-04-14 11:11 | 32.65008 | 6.71489 | 35956 ft | 461 kts | 184° |
| 2026-04-14 11:11 | 32.58548 | 6.71675 | 35956 ft | 461 kts | 183° |
| 2026-04-14 11:12 | 32.52288 | 6.71854 | 35952 ft | 461 kts | 184° |
| 2026-04-14 11:12 | 32.46005 | 6.72034 | 35955 ft | 460 kts | 184° |
| 2026-04-14 11:13 | 32.39597 | 6.72218 | 35957 ft | 460 kts | 184° |
| 2026-04-14 11:13 | 32.33220 | 6.72401 | 35969 ft | 459 kts | 184° |
| 2026-04-14 11:14 | 32.26900 | 6.72581 | 35974 ft | 459 kts | 184° |
| 2026-04-14 11:14 | 32.20665 | 6.72759 | 35962 ft | 459 kts | 184° |
| 2026-04-14 11:15 | 32.14392 | 6.72939 | 35964 ft | 458 kts | 184° |
| 2026-04-14 11:15 | 32.08003 | 6.73120 | 35970 ft | 458 kts | 184° |
| 2026-04-14 11:16 | 32.04819 | 6.73211 | 35709 ft | 459 kts | 184° |
| 2026-04-14 11:16 | 32.01600 | 6.73304 | 36119 ft | 454 kts | 184° |
| 2026-04-14 11:16 | 31.98603 | 6.73388 | 35995 ft | 457 kts | 184° |
| 2026-04-14 11:16 | 31.95397 | 6.73478 | 35974 ft | 458 kts | 184° |
| 2026-04-14 11:17 | 31.89183 | 6.73654 | 35960 ft | 460 kts | 185° |
| 2026-04-14 11:17 | 31.85938 | 6.73746 | 35687 ft | 459 kts | 184° |
| 2026-04-14 11:17 | 31.82796 | 6.73838 | 35911 ft | 452 kts | 184° |
| 2026-04-14 11:18 | 31.79636 | 6.73928 | 36084 ft | 455 kts | 184° |
| 2026-04-14 11:18 | 31.76603 | 6.74010 | 35975 ft | 459 kts | 185° |
| 2026-04-14 11:18 | 31.70179 | 6.74193 | 35983 ft | 458 kts | 184° |
| 2026-04-14 11:19 | 31.63938 | 6.74369 | 35988 ft | 459 kts | 185° |
| 2026-04-14 11:19 | 31.57706 | 6.74545 | 35978 ft | 459 kts | 185° |
| 2026-04-14 11:20 | 31.51280 | 6.74727 | 35978 ft | 458 kts | 185° |
| 2026-04-14 11:20 | 31.44900 | 6.74906 | 35956 ft | 458 kts | 185° |
| 2026-04-14 11:21 | 31.38557 | 6.75086 | 35975 ft | 456 kts | 185° |
| 2026-04-14 11:21 | 31.32126 | 6.75266 | 35951 ft | 458 kts | 185° |
| 2026-04-14 11:22 | 31.25753 | 6.75445 | 35970 ft | 458 kts | 185° |
| 2026-04-14 11:22 | 31.19358 | 6.75625 | 35990 ft | 457 kts | 185° |
| 2026-04-14 11:23 | 31.13077 | 6.75801 | 35955 ft | 457 kts | 185° |
| 2026-04-14 11:23 | 31.06877 | 6.75975 | 35941 ft | 457 kts | 185° |
| 2026-04-14 11:24 | 31.00489 | 6.76154 | 36011 ft | 455 kts | 185° |
| 2026-04-14 11:24 | 30.94123 | 6.76332 | 35992 ft | 455 kts | 185° |
| 2026-04-14 11:25 | 30.87908 | 6.76505 | 35991 ft | 455 kts | 185° |
| 2026-04-14 11:25 | 30.81583 | 6.76682 | 35985 ft | 454 kts | 185° |
| 2026-04-14 11:26 | 30.75244 | 6.76858 | 35993 ft | 454 kts | 185° |
| 2026-04-14 11:26 | 30.68960 | 6.77034 | 36128 ft | 449 kts | 185° |
| 2026-04-14 11:27 | 30.65821 | 6.77120 | 36007 ft | 452 kts | 185° |
| 2026-04-14 11:27 | 30.62649 | 6.77208 | 36006 ft | 452 kts | 185° |
| 2026-04-14 11:27 | 30.59486 | 6.77297 | 36170 ft | 447 kts | 185° |
| 2026-04-14 11:27 | 30.56544 | 6.77378 | 36043 ft | 451 kts | 185° |
| 2026-04-14 11:28 | 30.53397 | 6.77464 | 35743 ft | 452 kts | 185° |
| 2026-04-14 11:28 | 30.50281 | 6.77552 | 35935 ft | 447 kts | 185° |
| 2026-04-14 11:28 | 30.44020 | 6.77726 | 35985 ft | 446 kts | 185° |
| 2026-04-14 11:29 | 30.37814 | 6.77897 | 35975 ft | 446 kts | 186° |
| 2026-04-14 11:29 | 30.31604 | 6.78068 | 36019 ft | 446 kts | 186° |
| 2026-04-14 11:30 | 30.25465 | 6.78236 | 36006 ft | 446 kts | 186° |
| 2026-04-14 11:30 | 30.19248 | 6.78407 | 35998 ft | 446 kts | 186° |
| 2026-04-14 11:31 | 30.13033 | 6.78578 | 36020 ft | 446 kts | 186° |
| 2026-04-14 11:31 | 30.06847 | 6.78749 | 36042 ft | 445 kts | 186° |
| 2026-04-14 11:32 | 30.00623 | 6.78920 | 36030 ft | 445 kts | 186° |
| 2026-04-14 11:32 | 29.94425 | 6.79090 | 36054 ft | 444 kts | 186° |
| 2026-04-14 11:33 | 29.88237 | 6.79260 | 36017 ft | 444 kts | 186° |
| 2026-04-14 11:34 | 29.78895 | 6.79515 | 36024 ft | 444 kts | 186° |
| 2026-04-14 11:34 | 29.72733 | 6.79683 | 36032 ft | 444 kts | 186° |
| 2026-04-14 11:35 | 29.66551 | 6.79852 | 36028 ft | 444 kts | 186° |
| 2026-04-14 11:35 | 29.60385 | 6.80020 | 36026 ft | 443 kts | 186° |
| 2026-04-14 11:36 | 29.54202 | 6.80188 | 36024 ft | 443 kts | 187° |
| 2026-04-14 11:36 | 29.48001 | 6.80356 | 36019 ft | 443 kts | 186° |
| 2026-04-14 11:37 | 29.41832 | 6.80524 | 36021 ft | 442 kts | 187° |
| 2026-04-14 11:37 | 29.35667 | 6.80691 | 36021 ft | 442 kts | 187° |
| 2026-04-14 11:38 | 29.29510 | 6.80858 | 36029 ft | 441 kts | 187° |
| 2026-04-14 11:38 | 29.23340 | 6.81024 | 36025 ft | 441 kts | 187° |
| 2026-04-14 11:39 | 29.17178 | 6.81191 | 36032 ft | 440 kts | 187° |
| 2026-04-14 11:39 | 29.11045 | 6.81356 | 36026 ft | 440 kts | 187° |
| 2026-04-14 11:40 | 29.04928 | 6.81520 | 36030 ft | 440 kts | 187° |
| 2026-04-14 11:40 | 28.98758 | 6.81686 | 36029 ft | 440 kts | 187° |
| 2026-04-14 11:41 | 28.92637 | 6.81851 | 36035 ft | 440 kts | 188° |
| 2026-04-14 11:41 | 28.86524 | 6.82014 | 36030 ft | 439 kts | 188° |
| 2026-04-14 11:42 | 28.80404 | 6.82177 | 36020 ft | 439 kts | 188° |
| 2026-04-14 11:42 | 28.74247 | 6.82342 | 36044 ft | 439 kts | 188° |
| 2026-04-14 11:43 | 28.68118 | 6.82505 | 36022 ft | 439 kts | 188° |
| 2026-04-14 11:43 | 28.62006 | 6.82668 | 36015 ft | 439 kts | 188° |
| 2026-04-14 11:44 | 28.55866 | 6.82831 | 36003 ft | 438 kts | 188° |
| 2026-04-14 11:44 | 28.49767 | 6.82993 | 36047 ft | 437 kts | 189° |
| 2026-04-14 11:45 | 28.43663 | 6.83155 | 36050 ft | 436 kts | 188° |
| 2026-04-14 11:45 | 28.37543 | 6.83317 | 36018 ft | 435 kts | 189° |
| 2026-04-14 11:46 | 28.31472 | 6.83477 | 36020 ft | 434 kts | 189° |
| 2026-04-14 11:46 | 28.25444 | 6.83637 | 36026 ft | 434 kts | 189° |
| 2026-04-14 11:47 | 28.19403 | 6.83795 | 36028 ft | 433 kts | 189° |
| 2026-04-14 11:47 | 28.13359 | 6.83756 | 36016 ft | 424 kts | 197° |
| 2026-04-14 11:47 | 28.10495 | 6.83171 | 36020 ft | 413 kts | 203° |
| 2026-04-14 11:48 | 28.07667 | 6.82408 | 36037 ft | 412 kts | 203° |
| 2026-04-14 11:48 | 28.02084 | 6.80906 | 36026 ft | 413 kts | 203° |
| 2026-04-14 11:49 | 27.96473 | 6.79397 | 35997 ft | 412 kts | 204° |
| 2026-04-14 11:49 | 27.90864 | 6.77889 | 36004 ft | 411 kts | 204° |
| 2026-04-14 11:50 | 27.85282 | 6.76388 | 36151 ft | 413 kts | 204° |
| 2026-04-14 11:50 | 27.79660 | 6.74876 | 36039 ft | 415 kts | 203° |
| 2026-04-14 11:51 | 27.71194 | 6.72605 | 36028 ft | 414 kts | 204° |
| 2026-04-14 11:51 | 27.65602 | 6.71106 | 36045 ft | 413 kts | 204° |
| 2026-04-14 11:52 | 27.60006 | 6.69606 | 36028 ft | 413 kts | 204° |
| 2026-04-14 11:52 | 27.54403 | 6.68107 | 36026 ft | 412 kts | 204° |
| 2026-04-14 11:53 | 27.48822 | 6.66615 | 36027 ft | 412 kts | 204° |
| 2026-04-14 11:53 | 27.43204 | 6.65114 | 36031 ft | 412 kts | 204° |
| 2026-04-14 11:54 | 27.37621 | 6.63624 | 36022 ft | 411 kts | 204° |
| 2026-04-14 11:54 | 27.32037 | 6.62136 | 36020 ft | 411 kts | 204° |
| 2026-04-14 11:55 | 27.26423 | 6.60640 | 36032 ft | 410 kts | 204° |
| 2026-04-14 11:55 | 27.20866 | 6.59161 | 36023 ft | 410 kts | 204° |
| 2026-04-14 11:56 | 27.15314 | 6.57686 | 36020 ft | 409 kts | 205° |
| 2026-04-14 11:56 | 27.09794 | 6.56220 | 36026 ft | 409 kts | 204° |
| 2026-04-14 11:57 | 27.04203 | 6.54737 | 36042 ft | 408 kts | 204° |
| 2026-04-14 11:57 | 26.98691 | 6.53275 | 36042 ft | 408 kts | 204° |
| 2026-04-14 11:58 | 26.93149 | 6.51808 | 36035 ft | 407 kts | 204° |
| 2026-04-14 11:58 | 26.87617 | 6.50344 | 36032 ft | 408 kts | 204° |
| 2026-04-14 11:59 | 26.82086 | 6.48882 | 36023 ft | 407 kts | 204° |
| 2026-04-14 11:59 | 26.76540 | 6.47419 | 36043 ft | 406 kts | 205° |
| 2026-04-14 12:00 | 26.71046 | 6.45969 | 36016 ft | 406 kts | 205° |
| 2026-04-14 12:00 | 26.65573 | 6.44527 | 36036 ft | 406 kts | 205° |
| 2026-04-14 12:01 | 26.60026 | 6.43066 | 36045 ft | 405 kts | 205° |
| 2026-04-14 12:01 | 26.54540 | 6.41623 | 36024 ft | 405 kts | 205° |
| 2026-04-14 12:02 | 26.49040 | 6.40176 | 36028 ft | 405 kts | 205° |
| 2026-04-14 12:02 | 26.43520 | 6.38727 | 36047 ft | 405 kts | 205° |
| 2026-04-14 12:03 | 26.37998 | 6.37280 | 36047 ft | 404 kts | 205° |
| 2026-04-14 12:03 | 26.32495 | 6.35838 | 36067 ft | 403 kts | 206° |
| 2026-04-14 12:04 | 26.27019 | 6.34404 | 36062 ft | 404 kts | 205° |
| 2026-04-14 12:04 | 26.21537 | 6.32971 | 36088 ft | 404 kts | 206° |
| 2026-04-14 12:05 | 26.16015 | 6.31526 | 36079 ft | 406 kts | 205° |
| 2026-04-14 12:05 | 26.10525 | 6.30093 | 36062 ft | 407 kts | 206° |
| 2026-04-14 12:06 | 26.05001 | 6.28652 | 36065 ft | 407 kts | 206° |
| 2026-04-14 12:06 | 25.99471 | 6.27210 | 36080 ft | 407 kts | 206° |
| 2026-04-14 12:07 | 25.93929 | 6.25737 | 36081 ft | 407 kts | 206° |
| 2026-04-14 12:07 | 25.88403 | 6.24266 | 36049 ft | 409 kts | 206° |
| 2026-04-14 12:08 | 25.82863 | 6.22795 | 36065 ft | 409 kts | 206° |
| 2026-04-14 12:08 | 25.77303 | 6.21321 | 36067 ft | 409 kts | 206° |
| 2026-04-14 12:09 | 25.71744 | 6.19847 | 36045 ft | 410 kts | 206° |
| 2026-04-14 12:09 | 25.66180 | 6.18374 | 36079 ft | 409 kts | 206° |
| 2026-04-14 12:10 | 25.60634 | 6.16907 | 36067 ft | 409 kts | 207° |
| 2026-04-14 12:10 | 25.55100 | 6.15444 | 36064 ft | 410 kts | 206° |
| 2026-04-14 12:11 | 25.49536 | 6.13975 | 36075 ft | 410 kts | 206° |
| 2026-04-14 12:11 | 25.43986 | 6.12511 | 36081 ft | 409 kts | 207° |
| 2026-04-14 12:12 | 25.38445 | 6.11052 | 36088 ft | 409 kts | 206° |
| 2026-04-14 12:12 | 25.32895 | 6.09590 | 36067 ft | 409 kts | 206° |
| 2026-04-14 12:13 | 25.27343 | 6.08131 | 36085 ft | 409 kts | 207° |
| 2026-04-14 12:13 | 25.21818 | 6.06679 | 36100 ft | 407 kts | 207° |
| 2026-04-14 12:14 | 25.16253 | 6.05217 | 36066 ft | 409 kts | 207° |
| 2026-04-14 12:14 | 25.10713 | 6.03765 | 36089 ft | 407 kts | 207° |
| 2026-04-14 12:15 | 25.05213 | 6.02324 | 36082 ft | 407 kts | 207° |
| 2026-04-14 12:15 | 24.99672 | 6.00873 | 36080 ft | 408 kts | 207° |
| 2026-04-14 12:16 | 24.94133 | 5.99424 | 36105 ft | 406 kts | 207° |
| 2026-04-14 12:16 | 24.88622 | 5.97983 | 36089 ft | 407 kts | 207° |
| 2026-04-14 12:17 | 24.83086 | 5.96537 | 36073 ft | 407 kts | 207° |
| 2026-04-14 12:17 | 24.77592 | 5.95105 | 36091 ft | 407 kts | 207° |
| 2026-04-14 12:18 | 24.72023 | 5.93655 | 36101 ft | 405 kts | 207° |
| 2026-04-14 12:18 | 24.66533 | 5.92224 | 36105 ft | 406 kts | 208° |
| 2026-04-14 12:19 | 24.61024 | 5.90792 | 36105 ft | 405 kts | 208° |
| 2026-04-14 12:19 | 24.55551 | 5.89369 | 36111 ft | 404 kts | 208° |
| 2026-04-14 12:20 | 24.50058 | 5.87943 | 36097 ft | 404 kts | 208° |
| 2026-04-14 12:20 | 24.44569 | 5.86519 | 36100 ft | 404 kts | 208° |
| 2026-04-14 12:21 | 24.39098 | 5.85101 | 36093 ft | 404 kts | 208° |
| 2026-04-14 12:21 | 24.33606 | 5.83680 | 36092 ft | 402 kts | 208° |
| 2026-04-14 12:22 | 24.28138 | 5.82266 | 36084 ft | 401 kts | 209° |
| 2026-04-14 12:22 | 24.22681 | 5.80855 | 36088 ft | 400 kts | 208° |
| 2026-04-14 12:23 | 24.17259 | 5.79454 | 36076 ft | 401 kts | 209° |
| 2026-04-14 12:23 | 24.11802 | 5.78045 | 36074 ft | 402 kts | 208° |
| 2026-04-14 12:24 | 24.06351 | 5.76641 | 36095 ft | 400 kts | 208° |
| 2026-04-14 12:24 | 24.00914 | 5.75242 | 36104 ft | 399 kts | 209° |
| 2026-04-14 12:25 | 23.95502 | 5.73848 | 36085 ft | 399 kts | 209° |
| 2026-04-14 12:25 | 23.90058 | 5.72449 | 36109 ft | 398 kts | 209° |
| 2026-04-14 12:26 | 23.84647 | 5.71057 | 36110 ft | 398 kts | 209° |
| 2026-04-14 12:26 | 23.79225 | 5.69665 | 36118 ft | 398 kts | 208° |
| 2026-04-14 12:27 | 23.73832 | 5.68281 | 36106 ft | 398 kts | 209° |
| 2026-04-14 12:27 | 23.68399 | 5.66890 | 36119 ft | 398 kts | 208° |
| 2026-04-14 12:28 | 23.63015 | 5.65510 | 36114 ft | 399 kts | 209° |
| 2026-04-14 12:28 | 23.57568 | 5.64117 | 36125 ft | 399 kts | 208° |
| 2026-04-14 12:29 | 23.52128 | 5.62727 | 36137 ft | 399 kts | 208° |
| 2026-04-14 12:29 | 23.46693 | 5.61339 | 36135 ft | 399 kts | 209° |
| 2026-04-14 12:30 | 23.41258 | 5.59953 | 36163 ft | 398 kts | 208° |
| 2026-04-14 12:30 | 23.35832 | 5.58570 | 36182 ft | 398 kts | 208° |
| 2026-04-14 12:31 | 23.30386 | 5.57183 | 36199 ft | 398 kts | 208° |
| 2026-04-14 12:31 | 23.24977 | 5.55806 | 36204 ft | 398 kts | 208° |
| 2026-04-14 12:32 | 23.19565 | 5.54430 | 36204 ft | 398 kts | 208° |
| 2026-04-14 12:32 | 23.14134 | 5.53050 | 36139 ft | 400 kts | 208° |
| 2026-04-14 12:33 | 23.08703 | 5.51672 | 36126 ft | 400 kts | 208° |
| 2026-04-14 12:33 | 23.03258 | 5.50292 | 36120 ft | 399 kts | 208° |
| 2026-04-14 12:34 | 22.97821 | 5.48915 | 36109 ft | 400 kts | 207° |
| 2026-04-14 12:34 | 22.92414 | 5.47546 | 36099 ft | 401 kts | 207° |
| 2026-04-14 12:35 | 22.87020 | 5.46183 | 36111 ft | 401 kts | 207° |
| 2026-04-14 12:35 | 22.81565 | 5.44803 | 36087 ft | 401 kts | 208° |
| 2026-04-14 12:36 | 22.76321 | 5.43066 | 36093 ft | 393 kts | 213° |
| 2026-04-14 12:36 | 22.71114 | 5.41192 | 36095 ft | 393 kts | 212° |
| 2026-04-14 12:37 | 22.65883 | 5.39315 | 36090 ft | 394 kts | 212° |
| 2026-04-14 12:37 | 22.60672 | 5.37449 | 36078 ft | 394 kts | 212° |
| 2026-04-14 12:38 | 22.52842 | 5.34652 | 36061 ft | 395 kts | 212° |
| 2026-04-14 12:39 | 22.47586 | 5.32776 | 36039 ft | 398 kts | 212° |
| 2026-04-14 12:39 | 22.42274 | 5.30883 | 36028 ft | 400 kts | 211° |
| 2026-04-14 12:40 | 22.36970 | 5.28996 | 36013 ft | 402 kts | 211° |
| 2026-04-14 12:40 | 22.31634 | 5.27100 | 36005 ft | 404 kts | 211° |
| 2026-04-14 12:41 | 22.26283 | 5.25202 | 36002 ft | 405 kts | 211° |
| 2026-04-14 12:41 | 22.20900 | 5.23293 | 35992 ft | 406 kts | 211° |
| 2026-04-14 12:42 | 22.15534 | 5.21393 | 35987 ft | 407 kts | 211° |
| 2026-04-14 12:42 | 22.10131 | 5.19481 | 35989 ft | 407 kts | 211° |
| 2026-04-14 12:43 | 22.04735 | 5.17573 | 35979 ft | 408 kts | 211° |
| 2026-04-14 12:43 | 21.99318 | 5.15659 | 35984 ft | 408 kts | 211° |
| 2026-04-14 12:44 | 21.93900 | 5.13746 | 35973 ft | 409 kts | 211° |
| 2026-04-14 12:44 | 21.88445 | 5.11822 | 35977 ft | 410 kts | 211° |
| 2026-04-14 12:45 | 21.80277 | 5.08944 | 35966 ft | 411 kts | 210° |
| 2026-04-14 12:45 | 21.74818 | 5.07023 | 35966 ft | 411 kts | 210° |
| 2026-04-14 12:46 | 21.69375 | 5.05110 | 35979 ft | 411 kts | 210° |
| 2026-04-14 12:46 | 21.63908 | 5.03189 | 35971 ft | 412 kts | 211° |
| 2026-04-14 12:47 | 21.58472 | 5.01280 | 35958 ft | 413 kts | 210° |
| 2026-04-14 12:47 | 21.52979 | 4.99353 | 35947 ft | 413 kts | 210° |
| 2026-04-14 12:48 | 21.47501 | 4.97433 | 35937 ft | 414 kts | 210° |
| 2026-04-14 12:48 | 21.42034 | 4.95519 | 35946 ft | 414 kts | 210° |
| 2026-04-14 12:49 | 21.36540 | 4.93595 | 35935 ft | 415 kts | 210° |
| 2026-04-14 12:49 | 21.31047 | 4.91674 | 35934 ft | 415 kts | 210° |
| 2026-04-14 12:50 | 21.22761 | 4.88780 | 35937 ft | 415 kts | 210° |
| 2026-04-14 12:51 | 21.17275 | 4.86866 | 35932 ft | 416 kts | 210° |
| 2026-04-14 12:51 | 21.11754 | 4.84941 | 35934 ft | 416 kts | 209° |
| 2026-04-14 12:52 | 21.06205 | 4.83008 | 35930 ft | 417 kts | 210° |
| 2026-04-14 12:52 | 21.00671 | 4.81081 | 35930 ft | 417 kts | 210° |
| 2026-04-14 12:53 | 20.95123 | 4.79151 | 35934 ft | 417 kts | 210° |
| 2026-04-14 12:53 | 20.89583 | 4.77225 | 35925 ft | 418 kts | 209° |
| 2026-04-14 12:54 | 20.84038 | 4.75300 | 35925 ft | 418 kts | 209° |
| 2026-04-14 12:54 | 20.78473 | 4.73368 | 35917 ft | 418 kts | 209° |
| 2026-04-14 12:55 | 20.72933 | 4.71448 | 35924 ft | 418 kts | 209° |
| 2026-04-14 12:55 | 20.67395 | 4.69528 | 35927 ft | 418 kts | 209° |
| 2026-04-14 12:56 | 20.61859 | 4.67612 | 35926 ft | 418 kts | 208° |
| 2026-04-14 12:56 | 20.56312 | 4.65693 | 35923 ft | 418 kts | 208° |
| 2026-04-14 12:57 | 20.50770 | 4.63777 | 35929 ft | 418 kts | 208° |
| 2026-04-14 12:57 | 20.45237 | 4.61866 | 35912 ft | 418 kts | 209° |
| 2026-04-14 12:58 | 20.39692 | 4.59952 | 35911 ft | 417 kts | 208° |
| 2026-04-14 12:58 | 20.34128 | 4.58034 | 35910 ft | 417 kts | 208° |
| 2026-04-14 12:59 | 20.28612 | 4.56132 | 35909 ft | 417 kts | 208° |
| 2026-04-14 12:59 | 20.23072 | 4.54224 | 35915 ft | 417 kts | 207° |
| 2026-04-14 13:00 | 20.17549 | 4.52323 | 35915 ft | 417 kts | 207° |
| 2026-04-14 13:00 | 20.12006 | 4.50417 | 35904 ft | 417 kts | 207° |
| 2026-04-14 13:01 | 20.06490 | 4.48522 | 35906 ft | 416 kts | 208° |
| 2026-04-14 13:01 | 20.00988 | 4.46632 | 35901 ft | 416 kts | 207° |
| 2026-04-14 13:02 | 19.95419 | 4.44721 | 35899 ft | 416 kts | 207° |
| 2026-04-14 13:02 | 19.89888 | 4.42824 | 35890 ft | 416 kts | 207° |
| 2026-04-14 13:03 | 19.84363 | 4.40930 | 35900 ft | 417 kts | 207° |
| 2026-04-14 13:03 | 19.78843 | 4.39040 | 35888 ft | 417 kts | 206° |
| 2026-04-14 13:04 | 19.73317 | 4.37149 | 35891 ft | 417 kts | 206° |
| 2026-04-14 13:04 | 19.67768 | 4.35252 | 35893 ft | 417 kts | 207° |
| 2026-04-14 13:05 | 19.62225 | 4.33357 | 35897 ft | 419 kts | 206° |
| 2026-04-14 13:05 | 19.56653 | 4.31454 | 35894 ft | 420 kts | 206° |
| 2026-04-14 13:06 | 19.51075 | 4.29551 | 35898 ft | 421 kts | 206° |
| 2026-04-14 13:06 | 19.45471 | 4.27639 | 35891 ft | 422 kts | 206° |
| 2026-04-14 13:07 | 19.39851 | 4.25724 | 35886 ft | 423 kts | 206° |
| 2026-04-14 13:07 | 19.34201 | 4.23800 | 35882 ft | 424 kts | 206° |
| 2026-04-14 13:08 | 19.28574 | 4.21886 | 35872 ft | 424 kts | 205° |
| 2026-04-14 13:08 | 19.22942 | 4.19972 | 35878 ft | 424 kts | 206° |
| 2026-04-14 13:09 | 19.17284 | 4.18049 | 35890 ft | 425 kts | 205° |
| 2026-04-14 13:09 | 19.11643 | 4.16112 | 35884 ft | 424 kts | 206° |
| 2026-04-14 13:10 | 19.06038 | 4.14102 | 35881 ft | 425 kts | 206° |
| 2026-04-14 13:10 | 19.00428 | 4.12094 | 35878 ft | 425 kts | 206° |
| 2026-04-14 13:11 | 18.94791 | 4.10077 | 35877 ft | 425 kts | 206° |
| 2026-04-14 13:11 | 18.89162 | 4.08066 | 35886 ft | 425 kts | 206° |
| 2026-04-14 13:12 | 18.83568 | 4.06067 | 35879 ft | 425 kts | 206° |
| 2026-04-14 13:12 | 18.77921 | 4.04052 | 35869 ft | 426 kts | 206° |
| 2026-04-14 13:13 | 18.72297 | 4.02046 | 35870 ft | 426 kts | 206° |
| 2026-04-14 13:13 | 18.66692 | 4.00049 | 35872 ft | 426 kts | 206° |
| 2026-04-14 13:14 | 18.61041 | 3.98036 | 35871 ft | 426 kts | 206° |
| 2026-04-14 13:14 | 18.55388 | 3.96025 | 35871 ft | 426 kts | 206° |
| 2026-04-14 13:15 | 18.49761 | 3.94024 | 35878 ft | 426 kts | 206° |
| 2026-04-14 13:15 | 18.44130 | 3.92022 | 35867 ft | 426 kts | 206° |
| 2026-04-14 13:16 | 18.38483 | 3.90017 | 35870 ft | 426 kts | 206° |
| 2026-04-14 13:16 | 18.32826 | 3.88009 | 35861 ft | 427 kts | 206° |
| 2026-04-14 13:17 | 18.27201 | 3.86014 | 35860 ft | 427 kts | 206° |
| 2026-04-14 13:17 | 18.21557 | 3.84014 | 35861 ft | 427 kts | 206° |
| 2026-04-14 13:18 | 18.15953 | 3.82029 | 35861 ft | 427 kts | 206° |
| 2026-04-14 13:18 | 18.10287 | 3.80023 | 35867 ft | 427 kts | 206° |
| 2026-04-14 13:19 | 18.04664 | 3.78034 | 35867 ft | 427 kts | 206° |
| 2026-04-14 13:19 | 17.99016 | 3.76037 | 35865 ft | 427 kts | 206° |
| 2026-04-14 13:20 | 17.93384 | 3.74047 | 35865 ft | 427 kts | 206° |
| 2026-04-14 13:20 | 17.87721 | 3.72048 | 35867 ft | 428 kts | 205° |
| 2026-04-14 13:21 | 17.82046 | 3.70046 | 35864 ft | 428 kts | 206° |
| 2026-04-14 13:21 | 17.76399 | 3.68054 | 35868 ft | 428 kts | 205° |
| 2026-04-14 13:22 | 17.70717 | 3.66052 | 35867 ft | 428 kts | 205° |
| 2026-04-14 13:22 | 17.65094 | 3.64072 | 35870 ft | 429 kts | 205° |
| 2026-04-14 13:23 | 17.59397 | 3.62067 | 35866 ft | 429 kts | 206° |
| 2026-04-14 13:23 | 17.53719 | 3.60070 | 35866 ft | 429 kts | 205° |
| 2026-04-14 13:24 | 17.48068 | 3.58084 | 35863 ft | 430 kts | 205° |
| 2026-04-14 13:24 | 17.39517 | 3.55081 | 35855 ft | 430 kts | 205° |
| 2026-04-14 13:25 | 17.33854 | 3.53093 | 35864 ft | 430 kts | 205° |
| 2026-04-14 13:26 | 17.22454 | 3.49097 | 35863 ft | 431 kts | 205° |
| 2026-04-14 13:26 | 17.16760 | 3.47104 | 35864 ft | 431 kts | 205° |
| 2026-04-14 13:27 | 17.11058 | 3.45109 | 35864 ft | 431 kts | 205° |
| 2026-04-14 13:27 | 17.05382 | 3.43124 | 35867 ft | 431 kts | 205° |
| 2026-04-14 13:28 | 16.99683 | 3.41133 | 35867 ft | 431 kts | 205° |
| 2026-04-14 13:28 | 16.93995 | 3.39146 | 35864 ft | 431 kts | 205° |
| 2026-04-14 13:29 | 16.88249 | 3.37141 | 35858 ft | 432 kts | 205° |
| 2026-04-14 13:29 | 16.82546 | 3.35152 | 35856 ft | 432 kts | 205° |
| 2026-04-14 13:30 | 16.76845 | 3.33164 | 35845 ft | 433 kts | 204° |
| 2026-04-14 13:30 | 16.71105 | 3.31164 | 35841 ft | 434 kts | 204° |
| 2026-04-14 13:31 | 16.65361 | 3.29165 | 35846 ft | 435 kts | 204° |
| 2026-04-14 13:31 | 16.59609 | 3.27163 | 35842 ft | 435 kts | 204° |
| 2026-04-14 13:32 | 16.53854 | 3.25163 | 35843 ft | 435 kts | 204° |
| 2026-04-14 13:32 | 16.48072 | 3.23153 | 35836 ft | 436 kts | 204° |
| 2026-04-14 13:33 | 16.42305 | 3.21151 | 35842 ft | 436 kts | 204° |
| 2026-04-14 13:33 | 16.36550 | 3.19154 | 35831 ft | 436 kts | 204° |
| 2026-04-14 13:34 | 16.27879 | 3.16146 | 35828 ft | 436 kts | 204° |
| 2026-04-14 13:35 | 16.22084 | 3.14139 | 35827 ft | 436 kts | 204° |
| 2026-04-14 13:35 | 16.16313 | 3.12142 | 35825 ft | 436 kts | 204° |
| 2026-04-14 13:36 | 16.10524 | 3.10141 | 35822 ft | 436 kts | 204° |
| 2026-04-14 13:36 | 16.04761 | 3.08149 | 35818 ft | 436 kts | 204° |
| 2026-04-14 13:37 | 15.98977 | 3.06152 | 35823 ft | 436 kts | 204° |
| 2026-04-14 13:37 | 15.93230 | 3.04168 | 35818 ft | 436 kts | 204° |
| 2026-04-14 13:38 | 15.87438 | 3.02170 | 35818 ft | 436 kts | 204° |
| 2026-04-14 13:38 | 15.81648 | 3.00174 | 35803 ft | 436 kts | 204° |
| 2026-04-14 13:39 | 15.75874 | 2.98185 | 35799 ft | 436 kts | 203° |
| 2026-04-14 13:39 | 15.70127 | 2.96206 | 35795 ft | 436 kts | 204° |
| 2026-04-14 13:40 | 15.64331 | 2.94212 | 35803 ft | 435 kts | 204° |
| 2026-04-14 13:40 | 15.58595 | 2.92239 | 35806 ft | 435 kts | 203° |
| 2026-04-14 13:41 | 15.52833 | 2.90259 | 35808 ft | 436 kts | 203° |
| 2026-04-14 13:41 | 15.47055 | 2.88273 | 35808 ft | 436 kts | 203° |
| 2026-04-14 13:42 | 15.41277 | 2.86290 | 35807 ft | 436 kts | 203° |
| 2026-04-14 13:42 | 15.35520 | 2.84314 | 35814 ft | 436 kts | 203° |
| 2026-04-14 13:43 | 15.29782 | 2.82347 | 35814 ft | 435 kts | 203° |
| 2026-04-14 13:43 | 15.24028 | 2.80375 | 35817 ft | 435 kts | 204° |
| 2026-04-14 13:44 | 15.18281 | 2.78406 | 35818 ft | 435 kts | 203° |
| 2026-04-14 13:44 | 15.12517 | 2.76432 | 35814 ft | 435 kts | 203° |
| 2026-04-14 13:45 | 15.06743 | 2.74457 | 35812 ft | 436 kts | 203° |
| 2026-04-14 13:45 | 15.00977 | 2.72485 | 35800 ft | 436 kts | 202° |
| 2026-04-14 13:46 | 14.95214 | 2.70516 | 35798 ft | 436 kts | 203° |
| 2026-04-14 13:46 | 14.89459 | 2.68551 | 35793 ft | 436 kts | 203° |
| 2026-04-14 13:47 | 14.83661 | 2.66572 | 35796 ft | 436 kts | 202° |
| 2026-04-14 13:47 | 14.77883 | 2.64601 | 35799 ft | 436 kts | 203° |
| 2026-04-14 13:48 | 14.72111 | 2.62634 | 35792 ft | 436 kts | 202° |
| 2026-04-14 13:48 | 14.66343 | 2.60669 | 35794 ft | 436 kts | 202° |
| 2026-04-14 13:49 | 14.60519 | 2.58686 | 35792 ft | 435 kts | 202° |
| 2026-04-14 13:49 | 14.54824 | 2.56749 | 35788 ft | 431 kts | 202° |
| 2026-04-14 13:50 | 14.49143 | 2.54817 | 35785 ft | 428 kts | 202° |
| 2026-04-14 13:50 | 14.43491 | 2.52895 | 35792 ft | 425 kts | 202° |
| 2026-04-14 13:51 | 14.37880 | 2.50989 | 35799 ft | 423 kts | 202° |
| 2026-04-14 13:51 | 14.32299 | 2.49094 | 35805 ft | 421 kts | 202° |
| 2026-04-14 13:52 | 14.26706 | 2.47196 | 35807 ft | 420 kts | 202° |
| 2026-04-14 13:52 | 14.21184 | 2.45323 | 35806 ft | 419 kts | 202° |
| 2026-04-14 13:53 | 14.15601 | 2.43430 | 35800 ft | 418 kts | 201° |
| 2026-04-14 13:53 | 14.10073 | 2.41557 | 35782 ft | 417 kts | 202° |
| 2026-04-14 13:54 | 14.04561 | 2.39690 | 35793 ft | 416 kts | 202° |
| 2026-04-14 13:54 | 13.99024 | 2.37817 | 35785 ft | 416 kts | 202° |
| 2026-04-14 13:55 | 13.93504 | 2.35949 | 35788 ft | 415 kts | 201° |
| 2026-04-14 13:55 | 13.87991 | 2.34085 | 35797 ft | 415 kts | 201° |
| 2026-04-14 13:56 | 13.82479 | 2.32222 | 35791 ft | 416 kts | 201° |
| 2026-04-14 13:56 | 13.76983 | 2.30366 | 35793 ft | 416 kts | 201° |
| 2026-04-14 13:57 | 13.71433 | 2.28490 | 35817 ft | 416 kts | 201° |
| 2026-04-14 13:57 | 13.65930 | 2.26580 | 35834 ft | 417 kts | 201° |
| 2026-04-14 13:58 | 13.60391 | 2.24708 | 35832 ft | 418 kts | 201° |
| 2026-04-14 13:58 | 13.54863 | 2.22861 | 35836 ft | 418 kts | 201° |
| 2026-04-14 13:59 | 13.49341 | 2.21013 | 35833 ft | 418 kts | 200° |
| 2026-04-14 13:59 | 13.43757 | 2.19272 | 35829 ft | 419 kts | 199° |
| 2026-04-14 14:00 | 13.38135 | 2.17559 | 35833 ft | 419 kts | 199° |
| 2026-04-14 14:00 | 13.32535 | 2.15852 | 35835 ft | 419 kts | 199° |
| 2026-04-14 14:01 | 13.26945 | 2.14148 | 35830 ft | 420 kts | 199° |
| 2026-04-14 14:01 | 13.21304 | 2.12428 | 35792 ft | 421 kts | 199° |
| 2026-04-14 14:02 | 13.15669 | 2.10710 | 35803 ft | 422 kts | 199° |
| 2026-04-14 14:02 | 13.10029 | 2.08990 | 35801 ft | 427 kts | 199° |
| 2026-04-14 14:03 | 13.04254 | 2.07230 | 35804 ft | 432 kts | 199° |
| 2026-04-14 14:03 | 12.98477 | 2.05470 | 35811 ft | 435 kts | 199° |
| 2026-04-14 14:04 | 12.92631 | 2.03690 | 35791 ft | 438 kts | 199° |
| 2026-04-14 14:04 | 12.86749 | 2.01900 | 35805 ft | 440 kts | 199° |
| 2026-04-14 14:05 | 12.80861 | 2.00109 | 35808 ft | 438 kts | 198° |
| 2026-04-14 14:05 | 12.75021 | 1.98334 | 35808 ft | 436 kts | 198° |
| 2026-04-14 14:06 | 12.69221 | 1.96571 | 35818 ft | 434 kts | 198° |
| 2026-04-14 14:06 | 12.63419 | 1.94809 | 35816 ft | 433 kts | 198° |
| 2026-04-14 14:07 | 12.57613 | 1.93046 | 35818 ft | 432 kts | 198° |
| 2026-04-14 14:07 | 12.51859 | 1.91299 | 35814 ft | 431 kts | 198° |
| 2026-04-14 14:08 | 12.46078 | 1.89545 | 35808 ft | 431 kts | 198° |
| 2026-04-14 14:08 | 12.40337 | 1.87805 | 35812 ft | 430 kts | 198° |
| 2026-04-14 14:09 | 12.34577 | 1.86059 | 35812 ft | 430 kts | 198° |
| 2026-04-14 14:09 | 12.28859 | 1.84327 | 35817 ft | 429 kts | 197° |
| 2026-04-14 14:10 | 12.23113 | 1.82587 | 35814 ft | 429 kts | 198° |
| 2026-04-14 14:10 | 12.17381 | 1.80852 | 35807 ft | 429 kts | 198° |
| 2026-04-14 14:11 | 12.11625 | 1.79111 | 35805 ft | 429 kts | 198° |
| 2026-04-14 14:11 | 12.05883 | 1.77375 | 35804 ft | 429 kts | 197° |
| 2026-04-14 14:12 | 12.00122 | 1.75634 | 35800 ft | 429 kts | 198° |
| 2026-04-14 14:12 | 11.94356 | 1.73892 | 35803 ft | 429 kts | 197° |
| 2026-04-14 14:13 | 11.88599 | 1.72154 | 35800 ft | 429 kts | 197° |
| 2026-04-14 14:13 | 11.82878 | 1.70427 | 35806 ft | 429 kts | 197° |
| 2026-04-14 14:14 | 11.77142 | 1.68697 | 35817 ft | 429 kts | 197° |
| 2026-04-14 14:14 | 11.71362 | 1.66954 | 35816 ft | 430 kts | 197° |
| 2026-04-14 14:15 | 11.65593 | 1.65215 | 35809 ft | 430 kts | 197° |
| 2026-04-14 14:15 | 11.59832 | 1.63480 | 35804 ft | 431 kts | 197° |
| 2026-04-14 14:16 | 11.54040 | 1.61736 | 35803 ft | 431 kts | 197° |
| 2026-04-14 14:16 | 11.48296 | 1.60007 | 35796 ft | 432 kts | 197° |
| 2026-04-14 14:17 | 11.39613 | 1.57395 | 35793 ft | 433 kts | 197° |
| 2026-04-14 14:17 | 11.33791 | 1.55645 | 35796 ft | 434 kts | 197° |
| 2026-04-14 14:18 | 11.27992 | 1.53902 | 35792 ft | 433 kts | 197° |
| 2026-04-14 14:18 | 11.22151 | 1.52148 | 35800 ft | 434 kts | 197° |
| 2026-04-14 14:19 | 11.16346 | 1.50405 | 35803 ft | 434 kts | 197° |
| 2026-04-14 14:19 | 11.10529 | 1.48659 | 35803 ft | 434 kts | 197° |
| 2026-04-14 14:20 | 11.04682 | 1.46905 | 35806 ft | 434 kts | 197° |
| 2026-04-14 14:20 | 10.98787 | 1.45544 | 35814 ft | 435 kts | 186° |
| 2026-04-14 14:21 | 10.92699 | 1.45385 | 35815 ft | 436 kts | 182° |
| 2026-04-14 14:21 | 10.86577 | 1.45293 | 35831 ft | 437 kts | 182° |
| 2026-04-14 14:22 | 10.80475 | 1.45201 | 35833 ft | 438 kts | 182° |
| 2026-04-14 14:22 | 10.74359 | 1.45110 | 35834 ft | 438 kts | 182° |
| 2026-04-14 14:23 | 10.68247 | 1.45018 | 35837 ft | 439 kts | 182° |
| 2026-04-14 14:23 | 10.62143 | 1.44927 | 35845 ft | 439 kts | 182° |
| 2026-04-14 14:24 | 10.55977 | 1.44834 | 35853 ft | 440 kts | 182° |
| 2026-04-14 14:24 | 10.49875 | 1.44742 | 35872 ft | 440 kts | 182° |
| 2026-04-14 14:25 | 10.43690 | 1.44650 | 35880 ft | 440 kts | 182° |
| 2026-04-14 14:25 | 10.37542 | 1.44557 | 35877 ft | 441 kts | 182° |
| 2026-04-14 14:26 | 10.31374 | 1.44465 | 35887 ft | 442 kts | 182° |
| 2026-04-14 14:26 | 10.25197 | 1.44372 | 35883 ft | 442 kts | 182° |
| 2026-04-14 14:27 | 10.19048 | 1.44280 | 35878 ft | 444 kts | 182° |
| 2026-04-14 14:27 | 10.12818 | 1.44186 | 35874 ft | 444 kts | 182° |
| 2026-04-14 14:28 | 10.06642 | 1.44094 | 35865 ft | 445 kts | 182° |
| 2026-04-14 14:28 | 10.00426 | 1.44000 | 35852 ft | 445 kts | 182° |
| 2026-04-14 14:29 | 9.94170 | 1.43907 | 35853 ft | 446 kts | 182° |
| 2026-04-14 14:29 | 9.87918 | 1.43811 | 35852 ft | 446 kts | 182° |
| 2026-04-14 14:30 | 9.81715 | 1.43717 | 35866 ft | 446 kts | 182° |
| 2026-04-14 14:30 | 9.75467 | 1.43623 | 35867 ft | 447 kts | 182° |
| 2026-04-14 14:31 | 9.69249 | 1.43531 | 35881 ft | 447 kts | 182° |
| 2026-04-14 14:31 | 9.62997 | 1.43437 | 35858 ft | 448 kts | 182° |
| 2026-04-14 14:32 | 9.56720 | 1.43343 | 35858 ft | 448 kts | 182° |
| 2026-04-14 14:32 | 9.50495 | 1.43249 | 35858 ft | 449 kts | 182° |
| 2026-04-14 14:33 | 9.44205 | 1.43155 | 35867 ft | 449 kts | 182° |
| 2026-04-14 14:33 | 9.37908 | 1.43061 | 35877 ft | 449 kts | 182° |
| 2026-04-14 14:34 | 9.28509 | 1.42919 | 35891 ft | 449 kts | 182° |
| 2026-04-14 14:35 | 9.22237 | 1.42824 | 35889 ft | 450 kts | 182° |
| 2026-04-14 14:35 | 9.15921 | 1.42729 | 35883 ft | 450 kts | 182° |
| 2026-04-14 14:36 | 9.09630 | 1.42634 | 35869 ft | 451 kts | 182° |
| 2026-04-14 14:36 | 9.03336 | 1.42539 | 35853 ft | 451 kts | 182° |
| 2026-04-14 14:37 | 8.97048 | 1.42444 | 35840 ft | 452 kts | 182° |
| 2026-04-14 14:37 | 8.90721 | 1.42348 | 35838 ft | 452 kts | 182° |
| 2026-04-14 14:38 | 8.84413 | 1.42253 | 35833 ft | 452 kts | 182° |
| 2026-04-14 14:38 | 8.78077 | 1.42157 | 35828 ft | 453 kts | 182° |
| 2026-04-14 14:39 | 8.71790 | 1.42061 | 35829 ft | 453 kts | 182° |
| 2026-04-14 14:39 | 8.65433 | 1.41965 | 35765 ft | 453 kts | 182° |
| 2026-04-14 14:39 | 8.62324 | 1.41920 | 35517 ft | 446 kts | 182° |
| 2026-04-14 14:40 | 8.59183 | 1.41872 | 35265 ft | 445 kts | 182° |
| 2026-04-14 14:40 | 8.56070 | 1.41825 | 35017 ft | 444 kts | 182° |
| 2026-04-14 14:40 | 8.52970 | 1.41778 | 34770 ft | 443 kts | 182° |
| 2026-04-14 14:40 | 8.49895 | 1.41731 | 34524 ft | 443 kts | 182° |
| 2026-04-14 14:41 | 8.46791 | 1.41684 | 34273 ft | 443 kts | 181° |
| 2026-04-14 14:41 | 8.43698 | 1.41637 | 34026 ft | 442 kts | 181° |
| 2026-04-14 14:41 | 8.40644 | 1.41590 | 33779 ft | 443 kts | 181° |
| 2026-04-14 14:41 | 8.37553 | 1.41544 | 33532 ft | 444 kts | 182° |
| 2026-04-14 14:42 | 8.34437 | 1.41496 | 33279 ft | 446 kts | 181° |
| 2026-04-14 14:42 | 8.31330 | 1.41449 | 33029 ft | 447 kts | 182° |
| 2026-04-14 14:42 | 8.28206 | 1.41402 | 32784 ft | 444 kts | 181° |
| 2026-04-14 14:42 | 8.25118 | 1.41356 | 32336 ft | 439 kts | 181° |
| 2026-04-14 14:43 | 8.22101 | 1.41311 | 31886 ft | 434 kts | 181° |
| 2026-04-14 14:43 | 8.19083 | 1.41265 | 31412 ft | 430 kts | 181° |
| 2026-04-14 14:43 | 8.16095 | 1.41219 | 30938 ft | 428 kts | 181° |
| 2026-04-14 14:43 | 8.13118 | 1.41174 | 30464 ft | 425 kts | 181° |
| 2026-04-14 14:44 | 8.10166 | 1.41129 | 29993 ft | 422 kts | 181° |
| 2026-04-14 14:44 | 8.07227 | 1.41084 | 29527 ft | 419 kts | 181° |
| 2026-04-14 14:44 | 8.04328 | 1.41040 | 29066 ft | 417 kts | 181° |
| 2026-04-14 14:44 | 8.01434 | 1.40995 | 28607 ft | 415 kts | 180° |
| 2026-04-14 14:45 | 7.98545 | 1.40951 | 28150 ft | 414 kts | 181° |
| 2026-04-14 14:45 | 7.95665 | 1.40907 | 27687 ft | 413 kts | 181° |
| 2026-04-14 14:45 | 7.92768 | 1.40863 | 27222 ft | 411 kts | 180° |
| 2026-04-14 14:45 | 7.89940 | 1.40819 | 26776 ft | 408 kts | 180° |
| 2026-04-14 14:46 | 7.87090 | 1.40775 | 26318 ft | 406 kts | 180° |
| 2026-04-14 14:46 | 7.84276 | 1.40731 | 25873 ft | 404 kts | 180° |
| 2026-04-14 14:46 | 7.81433 | 1.40687 | 25420 ft | 402 kts | 180° |
| 2026-04-14 14:46 | 7.78640 | 1.40644 | 24975 ft | 400 kts | 180° |
| 2026-04-14 14:47 | 7.75868 | 1.40601 | 24544 ft | 399 kts | 179° |
| 2026-04-14 14:47 | 7.73098 | 1.40558 | 24102 ft | 398 kts | 179° |
| 2026-04-14 14:47 | 7.70312 | 1.40515 | 23655 ft | 398 kts | 179° |
| 2026-04-14 14:47 | 7.67520 | 1.40472 | 23211 ft | 397 kts | 179° |
| 2026-04-14 14:48 | 7.64756 | 1.40430 | 22777 ft | 397 kts | 179° |
| 2026-04-14 14:48 | 7.62009 | 1.40387 | 22340 ft | 396 kts | 179° |
| 2026-04-14 14:48 | 7.59249 | 1.40345 | 21906 ft | 395 kts | 179° |
| 2026-04-14 14:48 | 7.56471 | 1.40302 | 21458 ft | 395 kts | 179° |
| 2026-04-14 14:49 | 7.53724 | 1.40260 | 21014 ft | 395 kts | 179° |
| 2026-04-14 14:49 | 7.50975 | 1.40217 | 20585 ft | 394 kts | 178° |
| 2026-04-14 14:49 | 7.48238 | 1.40177 | 20144 ft | 394 kts | 179° |
| 2026-04-14 14:49 | 7.45479 | 1.40135 | 19706 ft | 390 kts | 179° |
| 2026-04-14 14:50 | 7.42792 | 1.40093 | 19270 ft | 381 kts | 178° |
| 2026-04-14 14:50 | 7.40178 | 1.40053 | 18861 ft | 372 kts | 178° |
| 2026-04-14 14:50 | 7.37600 | 1.40013 | 18451 ft | 363 kts | 178° |
| 2026-04-14 14:50 | 7.35105 | 1.39975 | 18051 ft | 357 kts | 178° |
| 2026-04-14 14:51 | 7.32642 | 1.39937 | 17664 ft | 354 kts | 178° |
| 2026-04-14 14:51 | 7.30163 | 1.39900 | 17271 ft | 349 kts | 178° |
| 2026-04-14 14:51 | 7.27753 | 1.39863 | 16889 ft | 345 kts | 178° |
| 2026-04-14 14:51 | 7.25358 | 1.39828 | 16506 ft | 341 kts | 178° |
| 2026-04-14 14:52 | 7.22991 | 1.39792 | 16120 ft | 338 kts | 178° |
| 2026-04-14 14:52 | 7.20652 | 1.39756 | 15756 ft | 335 kts | 178° |
| 2026-04-14 14:52 | 7.18303 | 1.39721 | 15385 ft | 332 kts | 178° |
| 2026-04-14 14:52 | 7.16005 | 1.39686 | 15011 ft | 330 kts | 178° |
| 2026-04-14 14:53 | 7.13698 | 1.39651 | 14649 ft | 331 kts | 177° |
| 2026-04-14 14:53 | 7.11385 | 1.39616 | 14276 ft | 333 kts | 178° |
| 2026-04-14 14:53 | 7.09076 | 1.39580 | 13912 ft | 330 kts | 177° |
| 2026-04-14 14:53 | 7.06774 | 1.39544 | 13529 ft | 325 kts | 177° |
| 2026-04-14 14:54 | 7.04528 | 1.39509 | 13180 ft | 319 kts | 178° |
| 2026-04-14 14:54 | 7.02333 | 1.39474 | 12828 ft | 315 kts | 177° |
| 2026-04-14 14:54 | 7.00126 | 1.39440 | 12482 ft | 312 kts | 177° |
| 2026-04-14 14:54 | 6.97977 | 1.39406 | 12270 ft | 304 kts | 178° |
| 2026-04-14 14:55 | 6.95857 | 1.39374 | 11914 ft | 307 kts | 177° |
| 2026-04-14 14:55 | 6.93700 | 1.39341 | 11577 ft | 306 kts | 177° |
| 2026-04-14 14:55 | 6.91585 | 1.39308 | 11227 ft | 305 kts | 177° |
| 2026-04-14 14:55 | 6.89467 | 1.39276 | 10882 ft | 302 kts | 177° |
| 2026-04-14 14:56 | 6.85258 | 1.39211 | 10211 ft | 303 kts | 177° |
| 2026-04-14 14:56 | 6.83135 | 1.39179 | 9889 ft | 302 kts | 176° |
| 2026-04-14 14:56 | 6.81026 | 1.39146 | 9551 ft | 302 kts | 177° |
| 2026-04-14 14:57 | 6.78922 | 1.39114 | 9215 ft | 302 kts | 177° |
| 2026-04-14 14:57 | 6.76815 | 1.39082 | 8872 ft | 303 kts | 178° |
| 2026-04-14 14:57 | 6.74700 | 1.39050 | 8542 ft | 304 kts | 178° |
| 2026-04-14 14:57 | 6.72567 | 1.39018 | 8191 ft | 306 kts | 178° |
| 2026-04-14 14:58 | 6.70446 | 1.38985 | 7854 ft | 301 kts | 178° |
| 2026-04-14 14:58 | 6.68344 | 1.38952 | 7541 ft | 296 kts | 179° |
| 2026-04-14 14:58 | 6.66317 | 1.38919 | 7215 ft | 290 kts | 179° |
| 2026-04-14 14:58 | 6.64310 | 1.38887 | 6885 ft | 284 kts | 179° |
| 2026-04-14 14:59 | 6.62344 | 1.38856 | 6618 ft | 275 kts | 180° |
| 2026-04-14 14:59 | 6.60478 | 1.38827 | 6459 ft | 264 kts | 180° |
| 2026-04-14 14:59 | 6.58662 | 1.38799 | 6317 ft | 255 kts | 180° |
| 2026-04-14 14:59 | 6.56890 | 1.38771 | 6180 ft | 248 kts | 180° |
| 2026-04-14 15:00 | 6.55175 | 1.38744 | 6043 ft | 245 kts | 180° |
| 2026-04-14 15:00 | 6.53467 | 1.38718 | 5890 ft | 243 kts | 180° |
| 2026-04-14 15:00 | 6.51768 | 1.38691 | 5749 ft | 243 kts | 180° |
| 2026-04-14 15:00 | 6.50075 | 1.38664 | 5597 ft | 242 kts | 180° |
| 2026-04-14 15:01 | 6.48394 | 1.38637 | 5445 ft | 241 kts | 180° |
| 2026-04-14 15:01 | 6.46718 | 1.38611 | 5288 ft | 240 kts | 180° |
| 2026-04-14 15:01 | 6.45055 | 1.38584 | 5150 ft | 238 kts | 180° |
| 2026-04-14 15:01 | 6.43405 | 1.38558 | 5043 ft | 235 kts | 180° |
| 2026-04-14 15:02 | 6.41758 | 1.38532 | 4809 ft | 236 kts | 180° |
| 2026-04-14 15:02 | 6.40111 | 1.38504 | 4556 ft | 236 kts | 181° |
| 2026-04-14 15:02 | 6.38467 | 1.38478 | 4329 ft | 232 kts | 181° |
| 2026-04-14 15:02 | 6.36861 | 1.38453 | 4124 ft | 227 kts | 181° |
| 2026-04-14 15:03 | 6.35296 | 1.38428 | 3928 ft | 222 kts | 181° |
| 2026-04-14 15:03 | 6.33745 | 1.38396 | 3707 ft | 218 kts | 185° |
| 2026-04-14 15:03 | 6.32352 | 1.37908 | 3495 ft | 214 kts | 215° |
| 2026-04-14 15:03 | 6.31171 | 1.36998 | 3220 ft | 214 kts | 218° |
| 2026-04-14 15:04 | 6.29994 | 1.36092 | 2961 ft | 209 kts | 218° |
| 2026-04-14 15:04 | 6.28877 | 1.35214 | 2696 ft | 196 kts | 218° |
| 2026-04-14 15:04 | 6.27862 | 1.34409 | 2439 ft | 174 kts | 219° |
| 2026-04-14 15:04 | 6.27015 | 1.33736 | 2280 ft | 145 kts | 219° |
| 2026-04-14 15:05 | 6.26362 | 1.33217 | 2208 ft | 121 kts | 218° |
| 2026-04-14 15:05 | 6.25679 | 1.32672 | 1952 ft | 124 kts | 218° |
| 2026-04-14 15:05 | 6.25043 | 1.32164 | 1833 ft | 116 kts | 218° |
| 2026-04-14 15:05 | 6.24388 | 1.31648 | 1666 ft | 122 kts | 218° |
| 2026-04-14 15:06 | 6.23731 | 1.31129 | 1533 ft | 115 kts | 217° |
| 2026-04-14 15:06 | 6.23084 | 1.30622 | 1382 ft | 119 kts | 217° |
| 2026-04-14 15:06 | 6.22422 | 1.30102 | 1223 ft | 119 kts | 218° |
| 2026-04-14 15:06 | 6.21783 | 1.29567 | 1067 ft | 118 kts | 219° |
| 2026-04-14 15:07 | 6.21137 | 1.29047 | 901 ft | 120 kts | 216° |
| 2026-04-14 15:07 | 6.20476 | 1.28545 | 754 ft | 120 kts | 218° |
| 2026-04-14 15:07 | 6.19814 | 1.28007 | 592 ft | 122 kts | 216° |
| 2026-04-14 15:07 | 6.19146 | 1.27470 | 451 ft | 123 kts | 218° |
| 2026-04-14 15:08 | 6.18479 | 1.26938 | 309 ft | 122 kts | 219° |
| 2026-04-14 15:08 | 6.17822 | 1.26414 | 149 ft | 120 kts | 218° |
| 2026-04-14 15:08 | 6.17184 | 1.25907 | 65 ft | 105 kts | 220° |
| 2026-04-14 15:08 | 6.16702 | 1.25521 | 74 ft | 72 kts | 218° |
| 2026-04-14 15:09 | 6.16362 | 1.25249 | 68 ft | 55 kts | 219° |
| 2026-04-14 15:09 | 6.16085 | 1.25029 | 66 ft | 40 kts | 219° |
| 2026-04-14 15:09 | 6.15932 | 1.24908 | 67 ft | 21 kts | 217° |
| 2026-04-14 15:09 | 6.15901 | 1.24824 | 69 ft | 12 kts | 307° |
| 2026-04-14 15:10 | 6.15961 | 1.24762 | 73 ft | 12 kts | 329° |
| 2026-04-14 15:10 | 6.16050 | 1.24764 | 74 ft | 14 kts | 36° |
| 2026-04-14 15:10 | 6.16131 | 1.24829 | 72 ft | 17 kts | 39° |
| 2026-04-14 15:10 | 6.16240 | 1.24917 | 69 ft | 18 kts | 38° |
| 2026-04-14 15:11 | 6.16325 | 1.24984 | 69 ft | 16 kts | 38° |
| 2026-04-14 15:11 | 6.16421 | 1.25059 | 73 ft | 18 kts | 38° |
| 2026-04-14 15:11 | 6.16524 | 1.25141 | 75 ft | 17 kts | 38° |
| 2026-04-14 15:11 | 6.16622 | 1.25218 | 75 ft | 17 kts | 38° |
| 2026-04-14 15:12 | 6.16709 | 1.25306 | 74 ft | 18 kts | 49° |
| 2026-04-14 15:12 | 6.16804 | 1.25385 | 73 ft | 16 kts | 38° |
| 2026-04-14 15:12 | 6.16900 | 1.25462 | 74 ft | 19 kts | 39° |
| 2026-04-14 15:12 | 6.16999 | 1.25539 | 74 ft | 18 kts | 38° |
| 2026-04-14 15:13 | 6.17102 | 1.25622 | 75 ft | 20 kts | 38° |
| 2026-04-14 15:13 | 6.17211 | 1.25708 | 75 ft | 17 kts | 39° |
| 2026-04-14 15:13 | 6.17285 | 1.25767 | 74 ft | 8 kts | 30° |
| 2026-04-14 15:13 | 6.17329 | 1.25755 | 75 ft | 6 kts | 307° |
| 2026-04-14 15:14 | 6.17354 | 1.25725 | 76 ft | 5 kts | 309° |
| 2026-04-14 15:14 | 6.17359 | 1.25697 | 77 ft | 5 kts | 229° |
| 2026-04-14 15:14 | 6.17326 | 1.25668 | 78 ft | 5 kts | 237° |
| 2026-04-14 15:14 | 6.17305 | 1.25644 | 79 ft | 4 kts | 177° |
| 2026-04-14 15:15 | 6.17297 | 1.25657 | 78 ft | 1 kts | 46° |
| 2026-04-14 15:15 | 6.17301 | 1.25661 | 78 ft | 0 kts | 37° |